M I D A S
Marine Information and Data Acquisition System
Tripno 1250 of the Zeeleeuw from 2007-04-23 07:07:39 to 2007-04-23 14:47:49
Back to CruiseResearch ActivitiesStationsMapUnderway DataData graphs

EquipmentUnitsComment
TimeDGPSUTC
LatitudeDGPSDM.mWGS84
LongitudeDGPSDM.mWGS84
TemperatureSBE03/SBE38deg celciusITS90
ConductivitySBE21S/mITS90
SalinitySBE21 Practical Salinity Units
ChlorophylAChelsea fluorimeterg/lCalibrated in Aceton
Missing or incorrect values are displayed as -999
Sea surface data collected by the RV Zeeleeuw from 2007-04-23 06:44:59 to 2007-04-23 15:01:30
                                                                                    Next 1000 lines
Time Latitude Longitude Temperature Conductivity Salinity ChlorophylA
2007-04-23 06:45:09 51°13.6 2°56.096 13.1243 3.380353 26.890254 -2.871232
2007-04-23 06:45:14 51°13.601 2°56.093 13.1336 3.376833 26.855483 -2.871232
2007-04-23 06:45:19 51°13.601 2°56.09 13.1418 3.370931 26.796634 -2.871232
2007-04-23 06:45:24 51°13.602 2°56.086 13.1432 3.363891 26.724686 -2.871232
2007-04-23 06:45:29 51°13.603 2°56.082 13.1403 3.357058 26.653384 -2.871232
2007-04-23 06:45:34 51°13.604 2°56.078 13.1309 3.357058 26.653384 -2.871232
2007-04-23 06:45:39 51°13.605 2°56.073 13.1359 3.353849 26.615225 -2.871232
2007-04-23 06:45:44 51°13.607 2°56.07 13.144 3.350743 26.579251 -2.871232
2007-04-23 06:45:49 51°13.607 2°56.069 13.1515 3.347637 26.543924 -2.871232
2007-04-23 06:45:54 51°13.608 2°56.071 13.1519 3.345359 26.517126 -2.871232
2007-04-23 06:45:59 51°13.607 2°56.073 13.1461 3.345152 26.512832 -2.871232
2007-04-23 06:46:04 51°13.606 2°56.075 13.1455 3.345152 26.512832 -2.871232
2007-04-23 06:46:09 51°13.605 2°56.077 13.1489 3.347533 26.534956 -2.871232
2007-04-23 06:46:14 51°13.604 2°56.079 13.1476 3.349397 26.550062 -2.871232
2007-04-23 06:46:19 51°13.603 2°56.081 13.1477 3.350121 26.553318 -2.871232
2007-04-23 06:46:24 51°13.602 2°56.083 13.1324 3.350432 26.552321 -2.871232
2007-04-23 06:46:29 51°13.601 2°56.085 13.1235 3.352088 26.564988 -2.871232
2007-04-23 06:46:34 51°13.6 2°56.087 13.1154 3.352088 26.564988 -2.871232
2007-04-23 06:46:39 51°13.599 2°56.089 13.1134 3.353641 26.579848 -2.871232
2007-04-23 06:46:44 51°13.597 2°56.091 13.1015 3.354469 26.586492 -2.871232
2007-04-23 06:46:49 51°13.596 2°56.093 13.1008 3.355401 26.594664 -2.871232
2007-04-23 06:46:54 51°13.595 2°56.094 13.0985 3.354883 26.590745 -2.871232
2007-04-23 06:46:59 51°13.594 2°56.096 13.0962 3.354366 26.593035 -2.871232
2007-04-23 06:47:04 51°13.593 2°56.097 13.0918 3.354366 26.593035 -2.871232
2007-04-23 06:47:09 51°13.591 2°56.099 13.0902 3.354884 26.604412 -2.871232
2007-04-23 06:47:14 51°13.59 2°56.101 13.0861 3.356022 26.61876 -2.871232
2007-04-23 06:47:19 51°13.588 2°56.103 13.0851 3.356851 26.632253 -2.871232
2007-04-23 06:47:24 51°13.586 2°56.105 13.0851 3.357576 26.642353 -2.871232
2007-04-23 06:47:29 51°13.584 2°56.106 13.0829 3.358507 26.653028 -2.871232
2007-04-23 06:47:34 51°13.582 2°56.108 13.0815 3.358507 26.653028 -2.871232
2007-04-23 06:47:39 51°13.581 2°56.11 13.0744 3.359853 26.66859 -2.871232
2007-04-23 06:47:44 51°13.579 2°56.112 13.0721 3.360785 26.679895 -2.871232
2007-04-23 06:47:49 51°13.577 2°56.114 13.0771 3.362752 26.699676 -2.871232
2007-04-23 06:47:54 51°13.574 2°56.117 13.0762 3.364305 26.715823 -2.871232
2007-04-23 06:47:59 51°13.572 2°56.119 13.0814 3.36534 26.726172 -2.871232
2007-04-23 06:48:04 51°13.569 2°56.123 13.0818 3.36534 26.726172 -2.871232
2007-04-23 06:48:09 51°13.566 2°56.127 13.0822 3.367101 26.744146 -2.871232
2007-04-23 06:48:14 51°13.563 2°56.131 13.0857 3.367618 26.750574 -2.871232
2007-04-23 06:48:19 51°13.561 2°56.135 13.0925 3.367101 26.747901 -2.871232
2007-04-23 06:48:24 51°13.558 2°56.139 13.0966 3.36503 26.730321 -2.871232
2007-04-23 06:48:29 51°13.554 2°56.143 13.1009 3.362442 26.706316 -2.871232
2007-04-23 06:48:34 51°13.551 2°56.148 13.1092 3.362442 26.706316 -2.871232
2007-04-23 06:48:39 51°13.548 2°56.153 13.1162 3.359957 26.683226 -2.871232
2007-04-23 06:48:44 51°13.545 2°56.158 13.1205 3.358818 26.671969 -2.871232
2007-04-23 06:48:49 51°13.541 2°56.163 13.1311 3.35623 26.647354 -2.871232
2007-04-23 06:48:54 51°13.538 2°56.17 13.1376 3.352503 26.610873 -2.871232
2007-04-23 06:48:59 51°13.534 2°56.177 13.1487 3.348465 26.572302 -2.871232
2007-04-23 06:49:04 51°13.531 2°56.185 13.1628 3.348465 26.572302 -2.871232
2007-04-23 06:49:09 51°13.529 2°56.195 13.1752 3.343807 26.527053 -2.871232
2007-04-23 06:49:14 51°13.528 2°56.204 13.1866 3.34039 26.49211 -2.871232
2007-04-23 06:49:19 51°13.527 2°56.214 13.2077 3.335732 26.446287 -2.871232
2007-04-23 06:49:24 51°13.528 2°56.224 13.2388 3.330038 26.390179 -2.871232
2007-04-23 06:49:29 51°13.529 2°56.233 13.2651 3.324344 26.334112 -2.871232
2007-04-23 06:49:34 51°13.53 2°56.242 13.2914 3.324344 26.334112 -2.871232
2007-04-23 06:49:39 51°13.532 2°56.251 13.3018 3.316269 26.25355 -2.871232
2007-04-23 06:49:44 51°13.535 2°56.259 13.3173 3.307781 26.171285 -2.871232
2007-04-23 06:49:49 51°13.538 2°56.265 13.3279 3.297222 26.068561 -2.871232
2007-04-23 06:49:54 51°13.541 2°56.271 13.3396 3.281902 25.920743 -2.871232
2007-04-23 06:49:59 51°13.542 2°56.274 13.3494 3.262131 25.728365 -2.871232
2007-04-23 06:50:04 51°13.544 2°56.277 13.3656 3.262131 25.728365 -2.871232
2007-04-23 06:50:09 51°13.545 2°56.279 13.3854 3.239257 25.508822 -2.871232
2007-04-23 06:50:14 51°13.546 2°56.281 13.4057 3.229217 25.408455 -2.871232
2007-04-23 06:50:19 51°13.546 2°56.282 13.4222 3.219074 25.306158 -2.871232
2007-04-23 06:50:24 51°13.546 2°56.282 13.4459 3.210794 25.223698 -2.871232
2007-04-23 06:50:29 51°13.546 2°56.283 13.4582 3.200652 25.124014 -2.871232
2007-04-23 06:50:34 51°13.545 2°56.282 13.464 3.200652 25.124014 -2.871232
2007-04-23 06:50:39 51°13.544 2°56.282 13.4697 3.187819 25.001734 -2.871232
2007-04-23 06:50:44 51°13.542 2°56.281 13.4681 3.169398 24.828969 -2.871232
2007-04-23 06:50:49 51°13.541 2°56.281 13.4626 3.151288 24.658636 -2.871232
2007-04-23 06:50:54 51°13.54 2°56.28 13.4584 3.131213 24.47053 -2.871232
2007-04-23 06:50:59 51°13.539 2°56.28 13.44 3.110208 24.276478 -2.871232
2007-04-23 06:51:04 51°13.539 2°56.28 13.4157 3.110208 24.276478 -2.871232
2007-04-23 06:51:09 51°13.54 2°56.281 13.3955 3.09686 24.150357 -2.871232
2007-04-23 06:51:14 51°13.54 2°56.281 13.3819 3.089307 24.07869 -2.871232
2007-04-23 06:51:19 51°13.541 2°56.282 13.3697 3.087444 24.060449 -2.871232
2007-04-23 06:51:24 51°13.542 2°56.283 13.3611 3.089307 24.076463 -2.871232
2007-04-23 06:51:29 51°13.543 2°56.283 13.352 3.099136 24.166033 -2.871232
2007-04-23 06:51:34 51°13.543 2°56.284 13.3468 3.099136 24.166033 -2.871232
2007-04-23 06:51:39 51°13.543 2°56.284 13.3482 3.113001 24.294361 -2.871232
2007-04-23 06:51:44 51°13.543 2°56.284 13.3441 3.127384 24.432978 -2.871232
2007-04-23 06:51:49 51°13.543 2°56.285 13.3435 3.142596 24.57444 -2.871232
2007-04-23 06:51:54 51°13.542 2°56.285 13.344 3.152219 24.667254 -2.871232
2007-04-23 06:51:59 51°13.541 2°56.285 13.3435 3.162775 24.767085 -2.871232
2007-04-23 06:52:04 51°13.54 2°56.285 13.3381 3.162775 24.767085 -2.871232
2007-04-23 06:52:09 51°13.539 2°56.285 13.341 3.16888 24.824492 -2.871232
2007-04-23 06:52:14 51°13.538 2°56.285 13.3271 3.171364 24.849438 -2.871232
2007-04-23 06:52:19 51°13.536 2°56.285 13.2966 3.173951 24.875288 -2.871232
2007-04-23 06:52:24 51°13.536 2°56.285 13.2805 3.176021 24.895514 -2.871232
2007-04-23 06:52:29 51°13.536 2°56.285 13.2559 3.17778 24.911322 -2.871232
2007-04-23 06:52:34 51°13.537 2°56.286 13.235 3.17778 24.911322 -2.871232
2007-04-23 06:52:39 51°13.538 2°56.286 13.2216 3.177677 24.911582 -2.871232
2007-04-23 06:52:44 51°13.54 2°56.286 13.2184 3.181816 24.949742 -2.871232
2007-04-23 06:52:49 51°13.542 2°56.286 13.2054 3.190406 25.032862 -2.871232
2007-04-23 06:52:54 51°13.543 2°56.286 13.2036 3.207896 25.196792 -2.871232
2007-04-23 06:52:59 51°13.543 2°56.286 13.2005 3.223214 25.345067 -2.871232
2007-04-23 06:53:04 51°13.544 2°56.287 13.2018 3.223214 25.345067 -2.871232
2007-04-23 06:53:09 51°13.543 2°56.288 13.1969 3.240499 25.510134 -2.871232
2007-04-23 06:53:14 51°13.543 2°56.289 13.1963 3.25116 25.616021 -2.871232
2007-04-23 06:53:19 51°13.541 2°56.29 13.1914 3.257473 25.678786 -2.871232
2007-04-23 06:53:24 51°13.539 2°56.291 13.1893 3.26534 25.755145 -2.871232
2007-04-23 06:53:29 51°13.537 2°56.292 13.1864 3.27124 25.814415 -2.871232
2007-04-23 06:53:34 51°13.535 2°56.294 13.1614 3.27124 25.814415 -2.871232
2007-04-23 06:53:39 51°13.534 2°56.294 13.145 3.271965 25.823745 -2.871232
2007-04-23 06:53:44 51°13.533 2°56.295 13.1418 3.275691 25.858674 -2.871232
2007-04-23 06:53:49 51°13.532 2°56.295 13.1319 3.277244 25.874036 -2.871232
2007-04-23 06:53:54 51°13.532 2°56.296 13.1128 3.280142 25.902356 -2.871232
2007-04-23 06:53:59 51°13.532 2°56.296 13.1096 3.283144 25.931591 -2.871232
2007-04-23 06:54:04 51°13.533 2°56.295 13.1034 3.283144 25.931591 -2.871232
2007-04-23 06:54:09 51°13.534 2°56.295 13.1046 3.291839 26.014218 -2.871232
2007-04-23 06:54:14 51°13.535 2°56.293 13.1062 3.30012 26.096341 -2.871232
2007-04-23 06:54:19 51°13.536 2°56.292 13.1185 3.309126 26.184284 -2.871232
2007-04-23 06:54:24 51°13.538 2°56.29 13.1228 3.318443 26.278111 -2.871232
2007-04-23 06:54:29 51°13.54 2°56.287 13.1252 3.324965 26.343247 -2.871232
2007-04-23 06:54:34 51°13.542 2°56.282 13.1279 3.324965 26.343247 -2.871232
2007-04-23 06:54:39 51°13.544 2°56.276 13.1353 3.330555 26.399036 -2.871232
2007-04-23 06:54:44 51°13.546 2°56.268 13.1388 3.332729 26.421806 -2.871232
2007-04-23 06:54:49 51°13.547 2°56.26 13.1387 3.331901 26.415159 -2.871232
2007-04-23 06:54:54 51°13.548 2°56.252 13.1341 3.32921 26.388467 -2.871232
2007-04-23 06:54:59 51°13.549 2°56.243 13.132 3.327036 26.366939 -2.871232
2007-04-23 06:55:04 51°13.549 2°56.234 13.1261 3.327036 26.366939 -2.871232
2007-04-23 06:55:09 51°13.55 2°56.226 13.1189 3.32569 26.352677 -2.871232
2007-04-23 06:55:14 51°13.551 2°56.217 13.1143 3.322584 26.322379 -2.871232
2007-04-23 06:55:19 51°13.551 2°56.208 13.1177 3.3201 26.298148 -2.871232
2007-04-23 06:55:24 51°13.552 2°56.198 13.1407 3.320307 26.299348 -2.871232
2007-04-23 06:55:29 51°13.552 2°56.189 13.1741 3.320928 26.305405 -2.871232
2007-04-23 06:55:34 51°13.553 2°56.18 13.2112 3.320928 26.305405 -2.871232
2007-04-23 06:55:39 51°13.554 2°56.171 13.2324 3.322688 26.322671 -2.871232
2007-04-23 06:55:44 51°13.555 2°56.162 13.2557 3.325276 26.348431 -2.871232
2007-04-23 06:55:49 51°13.557 2°56.152 13.2678 3.325586 26.353617 -2.871232
2007-04-23 06:55:54 51°13.558 2°56.143 13.2735 3.318133 26.285826 -2.871232
2007-04-23 06:55:59 51°13.56 2°56.134 13.2772 3.293599 26.058161 -2.871232
2007-04-23 06:56:04 51°13.561 2°56.124 13.2764 3.293599 26.058161 -2.871232
2007-04-23 06:56:09 51°13.563 2°56.115 13.2759 3.266583 25.802036 -2.871232
2007-04-23 06:56:14 51°13.566 2°56.107 13.2759 3.246192 25.60673 -2.871232
2007-04-23 06:56:19 51°13.568 2°56.098 13.2782 3.22839 25.432606 -2.871232
2007-04-23 06:56:24 51°13.571 2°56.089 13.2773 3.217626 25.327716 -2.871232
2007-04-23 06:56:29 51°13.573 2°56.08 13.2775 3.210588 25.257696 -2.871232
2007-04-23 06:56:34 51°13.576 2°56.072 13.2745 3.210588 25.257696 -2.871232
2007-04-23 06:56:39 51°13.579 2°56.063 13.2714 3.208414 25.232935 -2.871232
2007-04-23 06:56:44 51°13.582 2°56.055 13.2681 3.209553 25.240479 -2.871232
2007-04-23 06:56:49 51°13.586 2°56.046 13.2651 3.210588 25.24771 -2.871232
2007-04-23 06:56:54 51°13.589 2°56.038 13.2527 3.211416 25.253142 -2.871232
2007-04-23 06:56:59 51°13.592 2°56.03 13.243 3.212347 25.260647 -2.871232
2007-04-23 06:57:04 51°13.596 2°56.021 13.2376 3.212347 25.260647 -2.871232
2007-04-23 06:57:09 51°13.599 2°56.013 13.2262 3.21421 25.277421 -2.871232
2007-04-23 06:57:14 51°13.603 2°56.004 13.2222 3.217315 25.306168 -2.871232
2007-04-23 06:57:19 51°13.607 2°55.995 13.2127 3.22073 25.33821 -2.871232
2007-04-23 06:57:24 51°13.61 2°55.986 13.1997 3.225905 25.386744 -2.871232
2007-04-23 06:57:29 51°13.614 2°55.977 13.197 3.231391 25.439188 -2.871232
2007-04-23 06:57:34 51°13.618 2°55.968 13.1859 3.231391 25.439188 -2.871232
2007-04-23 06:57:39 51°13.622 2°55.959 13.1769 3.236876 25.49285 -2.871232
2007-04-23 06:57:44 51°13.626 2°55.949 13.1639 3.242362 25.546549 -2.871232
2007-04-23 06:57:49 51°13.631 2°55.94 13.1536 3.246088 25.584361 -2.871232
2007-04-23 06:57:54 51°13.636 2°55.932 13.1434 3.246916 25.599324 -2.871232
2007-04-23 06:57:59 51°13.641 2°55.923 13.1322 3.257474 25.697934 -2.871232
2007-04-23 06:58:04 51°13.645 2°55.914 13.1254 3.257474 25.697934 -2.871232
2007-04-23 06:58:09 51°13.65 2°55.904 13.1196 3.261511 25.741538 -2.871232
2007-04-23 06:58:14 51°13.655 2°55.895 13.1147 3.270309 25.824941 -2.871232
2007-04-23 06:58:19 51°13.659 2°55.885 13.1147 3.279107 25.909022 -2.871232
2007-04-23 06:58:24 51°13.664 2°55.875 13.1151 3.286353 25.98082 -2.871232
2007-04-23 06:58:29 51°13.668 2°55.865 13.1165 3.29215 26.041225 -2.871232
2007-04-23 06:58:34 51°13.673 2°55.855 13.1172 3.29215 26.041225 -2.871232
2007-04-23 06:58:39 51°13.678 2°55.845 13.1107 3.29774 26.098659 -2.871232
2007-04-23 06:58:44 51°13.683 2°55.836 13.1101 3.300017 26.124694 -2.871232
2007-04-23 06:58:49 51°13.688 2°55.826 13.1062 3.300742 26.135923 -2.871232
2007-04-23 06:58:54 51°13.693 2°55.816 13.1063 3.299914 26.131113 -2.871232
2007-04-23 06:58:59 51°13.698 2°55.806 13.106 3.297844 26.113592 -2.871232
2007-04-23 06:59:04 51°13.703 2°55.795 13.111 3.297844 26.113592 -2.871232
2007-04-23 06:59:09 51°13.708 2°55.785 13.112 3.295359 26.091836 -2.871232
2007-04-23 06:59:14 51°13.713 2°55.774 13.1143 3.294014 26.082491 -2.871232
2007-04-23 06:59:19 51°13.719 2°55.764 13.1105 3.296084 26.102451 -2.871232
2007-04-23 06:59:24 51°13.725 2°55.755 13.1087 3.296705 26.110332 -2.871232
2007-04-23 06:59:29 51°13.731 2°55.745 13.1086 3.294945 26.095528 -2.871232
2007-04-23 06:59:34 51°13.737 2°55.736 13.1084 3.294945 26.095528 -2.871232
2007-04-23 06:59:39 51°13.743 2°55.726 13.1027 3.290805 26.058655 -2.871232
2007-04-23 06:59:44 51°13.75 2°55.717 13.1017 3.285629 26.012121 -2.871232
2007-04-23 06:59:49 51°13.757 2°55.709 13.0998 3.280868 25.969832 -2.871232
2007-04-23 06:59:54 51°13.764 2°55.7 13.1036 3.276003 25.927861 -2.871232
2007-04-23 06:59:59 51°13.771 2°55.692 13.1065 3.275382 25.923638 -2.871232
2007-04-23 07:00:04 51°13.778 2°55.684 13.104 3.275382 25.923638 -2.871232
2007-04-23 07:00:09 51°13.786 2°55.677 13.0961 3.27031 25.880466 -2.871232
2007-04-23 07:00:14 51°13.793 2°55.669 13.0949 3.269378 25.873525 -2.871232
2007-04-23 07:00:19 51°13.801 2°55.662 13.0953 3.270517 25.885303 -2.871232
2007-04-23 07:00:24 51°13.809 2°55.656 13.0871 3.268861 25.871415 -2.871232
2007-04-23 07:00:29 51°13.817 2°55.649 13.0818 3.264513 25.832774 -2.871232
2007-04-23 07:00:34 51°13.825 2°55.643 13.0729 3.264513 25.832774 -2.871232
2007-04-23 07:00:39 51°13.834 2°55.638 13.067 3.263064 25.8207 -2.871232
2007-04-23 07:00:44 51°13.842 2°55.632 13.0585 3.265341 25.843039 -2.871232
2007-04-23 07:00:49 51°13.85 2°55.625 13.0507 3.268861 25.875649 -2.871232
2007-04-23 07:00:54 51°13.859 2°55.618 13.0439 3.272484 25.909176 -2.871232
2007-04-23 07:00:59 51°13.868 2°55.612 13.0358 3.277245 25.953895 -2.871232
2007-04-23 07:01:04 51°13.877 2°55.606 13.0306 3.277245 25.953895 -2.871232
2007-04-23 07:01:09 51°13.886 2°55.599 13.0251 3.283766 26.014658 -2.871232
2007-04-23 07:01:14 51°13.896 2°55.593 13.0182 3.292047 26.093931 -2.871232
2007-04-23 07:01:19 51°13.905 2°55.586 13.0152 3.300328 26.170822 -2.871232
2007-04-23 07:01:24 51°13.914 2°55.579 13.0179 3.311198 26.272936 -2.871232
2007-04-23 07:01:29 51°13.924 2°55.572 13.0211 3.321136 26.366968 -2.871232
2007-04-23 07:01:34 51°13.934 2°55.565 13.0206 3.321136 26.366968 -2.871232
2007-04-23 07:01:39 51°13.944 2°55.558 13.0227 3.33066 26.456829 -2.871232
2007-04-23 07:01:44 51°13.954 2°55.551 13.0293 3.339977 26.543083 -2.871232
2007-04-23 07:01:49 51°13.964 2°55.543 13.0346 3.346499 26.604807 -2.871232
2007-04-23 07:01:54 51°13.974 2°55.536 13.0374 3.351883 26.655296 -2.871232
2007-04-23 07:01:59 51°13.984 2°55.529 13.0429 3.353228 26.668391 -2.871232
2007-04-23 07:02:04 51°13.994 2°55.522 13.0388 3.353228 26.668391 -2.871232
2007-04-23 07:02:09 51°14.004 2°55.514 13.0413 3.353643 26.673911 -2.871232
2007-04-23 07:02:14 51°14.015 2°55.507 13.0406 3.348777 26.630461 -2.871232
2007-04-23 07:02:19 51°14.025 2°55.5 13.0381 3.341219 26.560852 -2.871232
2007-04-23 07:02:24 51°14.035 2°55.493 13.0402 3.332316 26.47945 -2.871232
2007-04-23 07:02:29 51°14.046 2°55.485 13.0422 3.325587 26.417203 -2.871232
2007-04-23 07:02:34 51°14.056 2°55.478 13.0465 3.325587 26.417203 -2.871232
2007-04-23 07:02:39 51°14.067 2°55.47 13.0454 3.322378 26.387766 -2.871232
2007-04-23 07:02:44 51°14.077 2°55.463 13.0457 3.320101 26.367138 -2.871232
2007-04-23 07:02:49 51°14.088 2°55.456 13.0462 3.318858 26.355607 -2.871232
2007-04-23 07:02:54 51°14.099 2°55.448 13.051 3.317202 26.342291 -2.871232
2007-04-23 07:02:59 51°14.109 2°55.44 13.0574 3.314304 26.315596 -2.871232
2007-04-23 07:03:04 51°14.118 2°55.431 13.0597 3.314304 26.315596 -2.871232
2007-04-23 07:03:09 51°14.128 2°55.422 13.0534 3.310887 26.283747 -2.871232
2007-04-23 07:03:14 51°14.138 2°55.413 13.0491 3.307575 26.253431 -2.871232
2007-04-23 07:03:19 51°14.148 2°55.403 13.043 3.305091 26.23162 -2.871232
2007-04-23 07:03:24 51°14.159 2°55.393 13.0406 3.30095 26.19466 -2.871232
2007-04-23 07:03:29 51°14.169 2°55.382 13.0413 3.294635 26.136186 -2.871232
2007-04-23 07:03:34 51°14.18 2°55.37 13.0444 3.294635 26.136186 -2.871232
2007-04-23 07:03:39 51°14.191 2°55.357 13.0416 3.289667 26.090154 -2.871232
2007-04-23 07:03:44 51°14.202 2°55.344 13.0371 3.290598 26.098325 -2.871232
2007-04-23 07:03:49 51°14.212 2°55.329 13.0269 3.296602 26.154054 -2.871232
2007-04-23 07:03:54 51°14.223 2°55.315 13.0278 3.302917 26.212537 -2.871232
2007-04-23 07:03:59 51°14.234 2°55.299 13.022 3.307782 26.256478 -2.871232
2007-04-23 07:04:04 51°14.245 2°55.282 13.0311 3.307782 26.256478 -2.871232
2007-04-23 07:04:09 51°14.256 2°55.263 13.0375 3.311198 26.28709 -2.871232
2007-04-23 07:04:14 51°14.267 2°55.243 13.0388 3.315235 26.32378 -2.871232
2007-04-23 07:04:19 51°14.278 2°55.223 13.0408 3.322378 26.387766 -2.871232
2007-04-23 07:04:24 51°14.29 2°55.202 13.0403 3.329211 26.451527 -2.871232
2007-04-23 07:04:29 51°14.302 2°55.18 13.0276 3.334076 26.496786 -2.871232
2007-04-23 07:04:34 51°14.313 2°55.158 13.0143 3.334076 26.496786 -2.871232
2007-04-23 07:04:39 51°14.324 2°55.136 13.0063 3.333144 26.489835 -2.871232
2007-04-23 07:04:44 51°14.336 2°55.113 12.9853 3.328279 26.444576 -2.871232
2007-04-23 07:04:49 51°14.347 2°55.09 12.9715 3.324966 26.412982 -2.871232
2007-04-23 07:04:54 51°14.358 2°55.067 12.966 3.326623 26.426301 -2.871232
2007-04-23 07:04:58 51°14.367 2°55.048 12.9579 3.33449 26.497944 -2.871232
2007-04-23 07:05:03 51°14.379 2°55.026 12.9468 3.33449 26.497944 -2.871232
2007-04-23 07:05:09 51°14.394 2°55.001 12.9298 3.347431 26.616746 -2.871232
2007-04-23 07:05:15 51°14.411 2°54.977 12.9208 3.363064 26.76062 -2.871232
2007-04-23 07:05:19 51°14.422 2°54.961 12.9026 3.377765 26.899599 -2.871232
2007-04-23 07:05:24 51°14.436 2°54.942 12.8838 3.390397 27.022394 -2.871232
2007-04-23 07:05:29 51°14.451 2°54.923 12.8754 3.399715 27.112274 -2.871232
2007-04-23 07:05:35 51°14.469 2°54.902 12.8503 3.399715 27.112274 -2.871232
2007-04-23 07:05:38 51°14.478 2°54.892 12.8409 3.408206 27.196198 -2.871232
2007-04-23 07:05:44 51°14.497 2°54.873 12.828 3.416075 27.274073 -2.871232
2007-04-23 07:05:48 51°14.51 2°54.86 12.8125 3.427361 27.386118 -2.871232
2007-04-23 07:05:53 51°14.525 2°54.844 12.807 3.441754 27.529721 -2.871232
2007-04-23 07:05:59 51°14.544 2°54.825 12.7925 3.45387 27.650113 -2.871232
2007-04-23 07:06:04 51°14.56 2°54.81 12.7696 3.45387 27.650113 -2.871232
2007-04-23 07:06:08 51°14.573 2°54.798 12.7623 3.467746 27.788928 -2.871232
2007-04-23 07:06:13 51°14.589 2°54.782 12.7476 3.47893 27.900755 -2.871232
2007-04-23 07:06:18 51°14.604 2°54.767 12.7423 3.489286 28.005362 -2.871232
2007-04-23 07:06:24 51°14.623 2°54.749 12.7404 3.498089 28.09495 -2.871232
2007-04-23 07:06:29 51°14.64 2°54.734 12.745 3.507617 28.191102 -2.871232
2007-04-23 07:06:33 51°14.652 2°54.722 12.743 3.507617 28.191102 -2.871232
2007-04-23 07:06:38 51°14.669 2°54.708 12.7466 3.520874 28.323964 -2.871232
2007-04-23 07:06:44 51°14.688 2°54.69 12.7423 3.530609 28.423577 -2.871232
2007-04-23 07:06:48 51°14.701 2°54.678 12.7408 3.537963 28.502034 -2.871232
2007-04-23 07:06:53 51°14.716 2°54.662 12.7217 3.542209 28.546052 -2.871232
2007-04-23 07:06:58 51°14.732 2°54.647 12.7134 3.542002 28.5469 -2.871232
2007-04-23 07:07:04 51°14.751 2°54.628 12.7139 3.542002 28.5469 -2.871232
2007-04-23 07:07:09 51°14.766 2°54.612 12.6888 3.543763 28.563991 -2.871232
2007-04-23 07:07:14 51°14.782 2°54.596 12.689 3.54397 28.567194 -2.871232
2007-04-23 07:07:18 51°14.795 2°54.584 12.6808 3.546042 28.587744 -2.871232
2007-04-23 07:07:24 51°14.813 2°54.565 12.6884 3.552981 28.654551 -2.871232
2007-04-23 07:07:29 51°14.829 2°54.55 12.6735 3.56251 28.747299 -2.871232
2007-04-23 07:07:33 51°14.842 2°54.538 12.6692 3.56251 28.747299 -2.871232
2007-04-23 07:07:38 51°14.858 2°54.523 12.6602 3.570382 28.825286 -2.871232
2007-04-23 07:07:43 51°14.874 2°54.508 12.6541 3.579705 28.917021 -2.871232
2007-04-23 07:07:48 51°14.89 2°54.493 12.6573 3.587059 28.990505 -2.871232
2007-04-23 07:07:54 51°14.909 2°54.476 12.6539 3.594724 29.066838 -2.871232
2007-04-23 07:07:58 51°14.922 2°54.464 12.661 3.5998 29.117912 -2.871232
2007-04-23 07:08:04 51°14.94 2°54.446 12.647 3.5998 29.117912 -2.871232
2007-04-23 07:08:08 51°14.953 2°54.434 12.6501 3.605497 29.173907 -2.871232
2007-04-23 07:08:13 51°14.968 2°54.418 12.6456 3.609641 29.216666 -2.871232
2007-04-23 07:08:18 51°14.984 2°54.403 12.644 3.612645 29.247126 -2.871232
2007-04-23 07:08:24 51°15.002 2°54.384 12.6319 3.614095 29.263629 -2.871232
2007-04-23 07:08:28 51°15.014 2°54.371 12.6366 3.615028 29.274092 -2.871232
2007-04-23 07:08:33 51°15.03 2°54.355 12.6344 3.615028 29.274092 -2.871232
2007-04-23 07:08:39 51°15.048 2°54.338 12.627 3.61741 29.298291 -2.871232
2007-04-23 07:08:44 51°15.064 2°54.322 12.6213 3.618446 29.311777 -2.871232
2007-04-23 07:08:48 51°15.077 2°54.311 12.6259 3.620104 29.329466 -2.871232
2007-04-23 07:08:54 51°15.096 2°54.293 12.6214 3.622175 29.350887 -2.871232
2007-04-23 07:08:59 51°15.111 2°54.278 12.6196 3.623211 29.363691 -2.871232
2007-04-23 07:09:04 51°15.127 2°54.264 12.6067 3.623211 29.363691 -2.871232
2007-04-23 07:09:09 51°15.143 2°54.249 12.6127 3.623522 29.369972 -2.871232
2007-04-23 07:09:14 51°15.159 2°54.234 12.613 3.62404 29.377422 -2.871232
2007-04-23 07:09:19 51°15.175 2°54.218 12.6143 3.624558 29.384176 -2.871232
2007-04-23 07:09:24 51°15.19 2°54.202 12.6112 3.624247 29.383472 -2.871232
2007-04-23 07:09:29 51°15.206 2°54.186 12.6091 3.624558 29.38906 -2.871232
2007-04-23 07:09:34 51°15.221 2°54.17 12.6105 3.624558 29.38906 -2.871232
2007-04-23 07:09:39 51°15.237 2°54.154 12.6114 3.625491 29.40234 -2.871232
2007-04-23 07:09:44 51°15.252 2°54.139 12.6163 3.625905 29.408166 -2.871232
2007-04-23 07:09:49 51°15.268 2°54.123 12.6176 3.626216 29.412362 -2.871232
2007-04-23 07:09:54 51°15.284 2°54.109 12.6185 3.626941 29.419591 -2.871232
2007-04-23 07:09:59 51°15.3 2°54.093 12.6234 3.628081 29.431252 -2.871232
2007-04-23 07:10:04 51°15.316 2°54.078 12.6226 3.628081 29.431252 -2.871232
2007-04-23 07:10:09 51°15.331 2°54.063 12.6188 3.628909 29.439415 -2.871232
2007-04-23 07:10:14 51°15.347 2°54.048 12.6226 3.629738 29.446181 -2.871232
2007-04-23 07:10:19 51°15.362 2°54.032 12.6245 3.63067 29.45388 -2.871232
2007-04-23 07:10:24 51°15.378 2°54.017 12.6328 3.631292 29.458079 -2.871232
2007-04-23 07:10:29 51°15.394 2°54.002 12.646 3.631706 29.459713 -2.871232
2007-04-23 07:10:34 51°15.409 2°53.987 12.6584 3.631706 29.459713 -2.871232
2007-04-23 07:10:39 51°15.425 2°53.971 12.6722 3.632017 29.461112 -2.871232
2007-04-23 07:10:44 51°15.44 2°53.956 12.6808 3.633053 29.471143 -2.871232
2007-04-23 07:10:49 51°15.456 2°53.941 12.6919 3.633674 29.475342 -2.871232
2007-04-23 07:10:54 51°15.471 2°53.925 12.6995 3.633985 29.475341 -2.871232
2007-04-23 07:10:59 51°15.486 2°53.909 12.7076 3.633778 29.467877 -2.871232
2007-04-23 07:11:04 51°15.502 2°53.894 12.7134 3.633778 29.467877 -2.871232
2007-04-23 07:11:09 51°15.518 2°53.879 12.7178 3.633053 29.453656 -2.871232
2007-04-23 07:11:14 51°15.533 2°53.864 12.7219 3.632742 29.441775 -2.871232
2007-04-23 07:11:19 51°15.549 2°53.849 12.7225 3.63212 29.424314 -2.871232
2007-04-23 07:11:24 51°15.565 2°53.835 12.7236 3.631705 29.410822 -2.871232
2007-04-23 07:11:29 51°15.581 2°53.821 12.7241 3.631187 29.398498 -2.871232
2007-04-23 07:11:34 51°15.597 2°53.807 12.7209 3.631187 29.398498 -2.871232
2007-04-23 07:11:39 51°15.613 2°53.793 12.7205 3.63098 29.388974 -2.871232
2007-04-23 07:11:44 51°15.63 2°53.779 12.7202 3.630876 29.381778 -2.871232
2007-04-23 07:11:49 51°15.646 2°53.764 12.7158 3.630876 29.376907 -2.871232
2007-04-23 07:11:54 51°15.662 2°53.751 12.7136 3.63098 29.375055 -2.871232
2007-04-23 07:11:59 51°15.678 2°53.736 12.7135 3.631083 29.374594 -2.871232
2007-04-23 07:12:04 51°15.694 2°53.722 12.7018 3.631083 29.374594 -2.871232
2007-04-23 07:12:09 51°15.71 2°53.708 12.7006 3.631291 29.376455 -2.871232
2007-04-23 07:12:14 51°15.726 2°53.693 12.6973 3.631601 29.378551 -2.871232
2007-04-23 07:12:19 51°15.742 2°53.679 12.6939 3.631394 29.377386 -2.871232
2007-04-23 07:12:24 51°15.758 2°53.665 12.6947 3.631498 29.381099 -2.871232
2007-04-23 07:12:29 51°15.774 2°53.651 12.6968 3.631498 29.383187 -2.871232
2007-04-23 07:12:34 51°15.791 2°53.637 12.7012 3.631498 29.383187 -2.871232
2007-04-23 07:12:39 51°15.807 2°53.623 12.7028 3.631602 29.387598 -2.871232
2007-04-23 07:12:44 51°15.823 2°53.609 12.7055 3.631394 29.389217 -2.871232
2007-04-23 07:12:49 51°15.839 2°53.595 12.7085 3.631394 29.392002 -2.871232
2007-04-23 07:12:54 51°15.856 2°53.58 12.7137 3.631291 29.393857 -2.871232
2007-04-23 07:12:59 51°15.872 2°53.566 12.7178 3.631187 29.393622 -2.871232
2007-04-23 07:13:04 51°15.888 2°53.552 12.7181 3.631187 29.393622 -2.871232
2007-04-23 07:13:09 51°15.904 2°53.538 12.7191 3.63098 29.391063 -2.871232
2007-04-23 07:13:14 51°15.92 2°53.523 12.7171 3.630876 29.38874 -2.871232
2007-04-23 07:13:19 51°15.936 2°53.509 12.7144 3.630876 29.385955 -2.871232
2007-04-23 07:13:24 51°15.953 2°53.496 12.6973 3.63098 29.384101 -2.871232
2007-04-23 07:13:29 51°15.969 2°53.483 12.6802 3.63098 29.381317 -2.871232
2007-04-23 07:13:34 51°15.986 2°53.47 12.6565 3.63098 29.381317 -2.871232
2007-04-23 07:13:39 51°16.003 2°53.457 12.6533 3.631291 29.381325 -2.871232
2007-04-23 07:13:44 51°16.02 2°53.445 12.6266 3.631705 29.38296 -2.871232
2007-04-23 07:13:49 51°16.036 2°53.433 12.6113 3.632016 29.387144 -2.871232
2007-04-23 07:13:54 51°16.054 2°53.422 12.6047 3.632534 29.395278 -2.871232
2007-04-23 07:13:59 51°16.071 2°53.41 12.5911 3.632948 29.40527 -2.871232
2007-04-23 07:14:04 51°16.088 2°53.399 12.5886 3.632948 29.40527 -2.871232
2007-04-23 07:14:09 51°16.105 2°53.387 12.5778 3.633052 29.422234 -2.871232
2007-04-23 07:14:14 51°16.122 2°53.376 12.571 3.632949 29.430373 -2.871232
2007-04-23 07:14:19 51°16.139 2°53.364 12.5734 3.632638 29.444335 -2.871232
2007-04-23 07:14:24 51°16.156 2°53.352 12.5665 3.63212 29.450855 -2.871232
2007-04-23 07:14:29 51°16.173 2°53.34 12.5604 3.631499 29.459246 -2.871232
2007-04-23 07:14:34 51°16.19 2°53.329 12.564 3.631499 29.459246 -2.871232
2007-04-23 07:14:39 51°16.207 2°53.317 12.5564 3.631085 29.466011 -2.871232
2007-04-23 07:14:44 51°16.224 2°53.305 12.5547 3.63036 29.467879 -2.871232
2007-04-23 07:14:49 51°16.241 2°53.293 12.5571 3.629946 29.470448 -2.871232
2007-04-23 07:14:54 51°16.258 2°53.281 12.5544 3.629531 29.473019 -2.871232
2007-04-23 07:14:59 51°16.275 2°53.268 12.5486 3.629428 29.477692 -2.871232
2007-04-23 07:15:04 51°16.292 2°53.256 12.5452 3.629428 29.477692 -2.871232
2007-04-23 07:15:09 51°16.309 2°53.245 12.5464 3.629117 29.477694 -2.871232
2007-04-23 07:15:14 51°16.326 2°53.233 12.5392 3.629221 29.480731 -2.871232
2007-04-23 07:15:19 51°16.343 2°53.22 12.531 3.629428 29.486107 -2.871232
2007-04-23 07:15:24 51°16.359 2°53.208 12.5265 3.629117 29.485408 -2.871232
2007-04-23 07:15:29 51°16.377 2°53.196 12.5165 3.629117 29.487513 -2.871232
2007-04-23 07:15:34 51°16.393 2°53.184 12.5152 3.629117 29.487513 -2.871232
2007-04-23 07:15:39 51°16.41 2°53.172 12.5103 3.629428 29.492422 -2.871232
2007-04-23 07:15:44 51°16.427 2°53.16 12.5088 3.629324 29.493593 -2.871232
2007-04-23 07:15:49 51°16.444 2°53.148 12.5065 3.629532 29.500376 -2.871232
2007-04-23 07:15:54 51°16.461 2°53.137 12.5036 3.629532 29.505995 -2.871232
2007-04-23 07:15:59 51°16.478 2°53.124 12.5041 3.629428 29.51068 -2.871232
2007-04-23 07:16:04 51°16.495 2°53.112 12.4955 3.629428 29.51068 -2.871232
2007-04-23 07:16:09 51°16.512 2°53.099 12.5001 3.629325 29.514664 -2.871232
2007-04-23 07:16:14 51°16.528 2°53.085 12.5009 3.629014 29.51467 -2.871232
2007-04-23 07:16:19 51°16.545 2°53.072 12.5009 3.628703 29.516081 -2.871232
2007-04-23 07:16:24 51°16.561 2°53.059 12.4991 3.628393 29.51679 -2.871232
2007-04-23 07:16:29 51°16.578 2°53.045 12.5008 3.627875 29.514924 -2.871232
2007-04-23 07:16:34 51°16.595 2°53.032 12.497 3.627875 29.514924 -2.871232
2007-04-23 07:16:39 51°16.611 2°53.019 12.4989 3.627771 29.517505 -2.871232
2007-04-23 07:16:44 51°16.628 2°53.006 12.498 3.627771 29.518209 -2.871232
2007-04-23 07:16:49 51°16.645 2°52.993 12.4885 3.627875 29.519145 -2.871232
2007-04-23 07:16:54 51°16.661 2°52.979 12.4899 3.628289 29.523592 -2.871232
2007-04-23 07:16:59 51°16.678 2°52.966 12.4789 3.628704 29.528743 -2.871232
2007-04-23 07:17:04 51°16.695 2°52.953 12.4769 3.628704 29.528743 -2.871232
2007-04-23 07:17:09 51°16.712 2°52.94 12.4777 3.628704 29.528743 -2.871232
2007-04-23 07:17:14 51°16.729 2°52.927 12.4777 3.628704 29.529447 -2.871232
2007-04-23 07:17:19 51°16.746 2°52.914 12.4732 3.628704 29.531559 -2.871232
2007-04-23 07:17:24 51°16.762 2°52.901 12.4726 3.628911 29.536247 -2.871232
2007-04-23 07:17:29 51°16.779 2°52.888 12.4767 3.628911 29.539768 -2.871232
2007-04-23 07:17:34 51°16.796 2°52.875 12.4755 3.628911 29.539768 -2.871232
2007-04-23 07:17:39 51°16.812 2°52.862 12.4779 3.629222 29.547508 -2.871232
2007-04-23 07:17:44 51°16.829 2°52.848 12.4751 3.628911 29.545403 -2.871232
2007-04-23 07:17:49 51°16.846 2°52.835 12.4676 3.628911 29.546812 -2.871232
2007-04-23 07:17:54 51°16.862 2°52.823 12.4708 3.629118 29.550799 -2.871232
2007-04-23 07:17:59 51°16.879 2°52.809 12.462 3.629015 29.551272 -2.871232
2007-04-23 07:18:04 51°16.896 2°52.797 12.4549 3.629015 29.551272 -2.871232
2007-04-23 07:18:09 51°16.913 2°52.784 12.443 3.629843 29.558766 -2.871232
2007-04-23 07:18:14 51°16.929 2°52.771 12.4354 3.630568 29.565323 -2.871232
2007-04-23 07:18:19 51°16.946 2°52.758 12.427 3.631708 29.577038 -2.871232
2007-04-23 07:18:24 51°16.963 2°52.745 12.4128 3.633262 29.592503 -2.871232
2007-04-23 07:18:29 51°16.98 2°52.732 12.4019 3.634609 29.608215 -2.871232
2007-04-23 07:18:34 51°16.997 2°52.719 12.4003 3.634609 29.608215 -2.871232
2007-04-23 07:18:39 51°17.013 2°52.706 12.4007 3.63637 29.629094 -2.871232
2007-04-23 07:18:44 51°17.03 2°52.693 12.3861 3.638027 29.649752 -2.871232
2007-04-23 07:18:49 51°17.047 2°52.68 12.3767 3.639374 29.66973 -2.871232
2007-04-23 07:18:54 51°17.064 2°52.666 12.3668 3.64041 29.686197 -2.871232
2007-04-23 07:18:59 51°17.081 2°52.652 12.3589 3.641964 29.711622 -2.871232
2007-04-23 07:19:04 51°17.097 2°52.638 12.3529 3.641964 29.711622 -2.871232
2007-04-23 07:19:09 51°17.113 2°52.624 12.3405 3.642586 29.725775 -2.871232
2007-04-23 07:19:14 51°17.13 2°52.611 12.33 3.643001 29.735215 -2.871232
2007-04-23 07:19:19 51°17.146 2°52.597 12.3165 3.643519 29.74631 -2.871232
2007-04-23 07:19:24 51°17.162 2°52.584 12.3052 3.64414 29.760484 -2.871232
2007-04-23 07:19:29 51°17.179 2°52.571 12.2918 3.644866 29.775606 -2.871232
2007-04-23 07:19:34 51°17.195 2°52.557 12.2754 3.644866 29.775606 -2.871232
2007-04-23 07:19:39 51°17.212 2°52.545 12.2679 3.645591 29.789312 -2.871232
2007-04-23 07:19:44 51°17.228 2°52.531 12.2595 3.646731 29.809641 -2.871232
2007-04-23 07:19:49 51°17.245 2°52.518 12.2476 3.648078 29.831866 -2.871232
2007-04-23 07:19:54 51°17.261 2°52.504 12.2426 3.648907 29.8494 -2.871232
2007-04-23 07:19:59 51°17.277 2°52.49 12.2411 3.649839 29.868605 -2.871232
2007-04-23 07:20:04 51°17.294 2°52.477 12.2346 3.649839 29.868605 -2.871232
2007-04-23 07:20:09 51°17.31 2°52.463 12.226 3.650046 29.882662 -2.871232
2007-04-23 07:20:14 51°17.326 2°52.449 12.225 3.650565 29.896691 -2.871232
2007-04-23 07:20:19 51°17.342 2°52.433 12.2207 3.650254 29.90821 -2.871232
2007-04-23 07:20:24 51°17.358 2°52.418 12.2161 3.650047 29.91422 -2.871232
2007-04-23 07:20:29 51°17.373 2°52.402 12.2151 3.649943 29.920458 -2.871232
2007-04-23 07:20:34 51°17.389 2°52.387 12.2098 3.649943 29.920458 -2.871232
2007-04-23 07:20:39 51°17.405 2°52.371 12.2097 3.649944 29.926925 -2.871232
2007-04-23 07:20:44 51°17.42 2°52.355 12.2031 3.649944 29.933394 -2.871232
2007-04-23 07:20:49 51°17.436 2°52.339 12.1982 3.64984 29.936765 -2.871232
2007-04-23 07:20:54 51°17.451 2°52.322 12.1896 3.649737 29.940137 -2.871232
2007-04-23 07:20:59 51°17.466 2°52.304 12.1792 3.649737 29.943734 -2.871232
2007-04-23 07:21:04 51°17.481 2°52.288 12.1777 3.649737 29.943734 -2.871232
2007-04-23 07:21:09 51°17.496 2°52.271 12.1721 3.64953 29.946883 -2.871232
2007-04-23 07:21:14 51°17.512 2°52.255 12.1664 3.649633 29.951427 -2.871232
2007-04-23 07:21:19 51°17.527 2°52.239 12.1552 3.649737 29.956692 -2.871232
2007-04-23 07:21:24 51°17.543 2°52.223 12.1476 3.649841 29.962679 -2.871232
2007-04-23 07:21:29 51°17.558 2°52.207 12.1316 3.649841 29.969885 -2.871232
2007-04-23 07:21:34 51°17.574 2°52.191 12.1215 3.649841 29.969885 -2.871232
2007-04-23 07:21:39 51°17.589 2°52.176 12.1183 3.649737 29.975429 -2.871232
2007-04-23 07:21:44 51°17.604 2°52.159 12.1055 3.649323 29.975976 -2.871232
2007-04-23 07:21:49 51°17.62 2°52.143 12.0972 3.646422 29.953835 -2.871232
2007-04-23 07:21:54 51°17.635 2°52.127 12.0947 3.648805 29.984236 -2.871232
2007-04-23 07:21:59 51°17.651 2°52.111 12.0809 3.648287 29.986727 -2.871232
2007-04-23 07:22:04 51°17.667 2°52.095 12.0741 3.648287 29.986727 -2.871232
2007-04-23 07:22:09 51°17.682 2°52.08 12.0646 3.647873 29.992332 -2.871232
2007-04-23 07:22:14 51°17.698 2°52.064 12.0599 3.646941 29.993931 -2.871232
2007-04-23 07:22:19 51°17.714 2°52.048 12.0445 3.646526 30.000266 -2.871232
2007-04-23 07:22:24 51°17.729 2°52.032 12.0377 3.645905 30.003988 -2.871232
2007-04-23 07:22:29 51°17.744 2°52.016 12.0358 3.645284 30.006989 -2.871232
2007-04-23 07:22:34 51°17.76 2°51.999 12.0201 3.645284 30.006989 -2.871232
2007-04-23 07:22:39 51°17.775 2°51.983 12.0116 3.644973 30.010662 -2.871232
2007-04-23 07:22:44 51°17.791 2°51.967 12.0032 3.644455 30.015338 -2.871232
2007-04-23 07:22:49 51°17.806 2°51.951 12.0029 3.64373 30.015948 -2.871232
2007-04-23 07:22:54 51°17.821 2°51.935 11.9908 3.643109 30.018232 -2.871232
2007-04-23 07:22:59 51°17.836 2°51.918 11.9815 3.642384 30.023195 -2.871232
2007-04-23 07:23:05 51°17.854 2°51.897 11.984 3.642384 30.023195 -2.871232
2007-04-23 07:23:09 51°17.866 2°51.883 11.9759 3.641659 30.024534 -2.871232
2007-04-23 07:23:14 51°17.88 2°51.865 11.9768 3.640726 30.024701 -2.871232
2007-04-23 07:23:19 51°17.895 2°51.847 11.9714 3.639898 30.023641 -2.871232
2007-04-23 07:23:24 51°17.909 2°51.828 11.9654 3.638551 30.020013 -2.871232
2007-04-23 07:23:29 51°17.923 2°51.81 11.9651 3.637412 30.017555 -2.871232
2007-04-23 07:23:34 51°17.937 2°51.791 11.9609 3.637412 30.017555 -2.871232
2007-04-23 07:23:39 51°17.952 2°51.773 11.9644 3.636169 30.011969 -2.871232
2007-04-23 07:23:44 51°17.966 2°51.754 11.9622 3.635133 30.006829 -2.871232
2007-04-23 07:23:49 51°17.98 2°51.736 11.9539 3.634304 30.002861 -2.871232
2007-04-23 07:23:54 51°17.994 2°51.717 11.9485 3.633268 29.999171 -2.871232
2007-04-23 07:23:59 51°18.008 2°51.698 11.9443 3.632647 29.996376 -2.871232
2007-04-23 07:24:04 51°18.022 2°51.678 11.9419 3.632647 29.996376 -2.871232
2007-04-23 07:24:09 51°18.036 2°51.659 11.9421 3.631714 29.990729 -2.871232
2007-04-23 07:24:14 51°18.05 2°51.64 11.9369 3.631404 29.989331 -2.871232
2007-04-23 07:24:19 51°18.064 2°51.62 11.9345 3.630368 29.98346 -2.871232
2007-04-23 07:24:24 51°18.078 2°51.601 11.933 3.629746 29.980663 -2.871232
2007-04-23 07:24:29 51°18.092 2°51.582 11.9316 3.628918 29.975964 -2.871232
2007-04-23 07:24:34 51°18.106 2°51.563 11.9346 3.628918 29.975964 -2.871232
2007-04-23 07:24:39 51°18.12 2°51.543 11.9319 3.628296 29.974618 -2.871232
2007-04-23 07:24:44 51°18.134 2°51.524 11.9275 3.627778 29.972044 -2.871232
2007-04-23 07:24:49 51°18.149 2°51.505 11.9259 3.62726 29.970922 -2.871232
2007-04-23 07:24:54 51°18.163 2°51.486 11.9236 3.626846 29.970751 -2.871232
2007-04-23 07:24:59 51°18.177 2°51.467 11.9181 3.626328 29.968176 -2.871232
2007-04-23 07:25:04 51°18.191 2°51.447 11.9212 3.626328 29.968176 -2.871232
2007-04-23 07:25:09 51°18.205 2°51.428 11.9142 3.626121 29.967001 -2.871232
2007-04-23 07:25:14 51°18.219 2°51.409 11.9123 3.625603 29.962973 -2.871232
2007-04-23 07:25:19 51°18.232 2°51.391 11.9149 3.625499 29.964201 -2.871232
2007-04-23 07:25:24 51°18.245 2°51.374 11.9152 3.624981 29.962352 -2.871232
2007-04-23 07:25:29 51°18.256 2°51.358 11.9059 3.624774 29.962629 -2.871232
2007-04-23 07:25:34 51°18.267 2°51.342 11.9086 3.624774 29.962629 -2.871232
2007-04-23 07:25:39 51°18.278 2°51.327 11.8998 3.624671 29.964584 -2.871232
2007-04-23 07:25:44 51°18.289 2°51.313 11.9005 3.624878 29.967212 -2.871232
2007-04-23 07:25:49 51°18.299 2°51.299 11.8959 3.624878 29.970119 -2.871232
2007-04-23 07:25:54 51°18.309 2°51.286 11.8902 3.625189 29.974426 -2.871232
2007-04-23 07:25:59 51°18.319 2°51.273 11.8865 3.625603 29.981139 -2.871232
2007-04-23 07:26:04 51°18.329 2°51.261 11.8846 3.625603 29.981139 -2.871232
2007-04-23 07:26:09 51°18.338 2°51.248 11.8836 3.625292 29.980466 -2.871232
2007-04-23 07:26:14 51°18.347 2°51.236 11.8831 3.625292 29.983375 -2.871232
2007-04-23 07:26:19 51°18.356 2°51.224 11.88 3.625189 29.984606 -2.871232
2007-04-23 07:26:24 51°18.364 2°51.213 11.8852 3.624671 29.983485 -2.871232
2007-04-23 07:26:29 51°18.372 2°51.202 11.8837 3.62436 29.984267 -2.871232
2007-04-23 07:26:34 51°18.38 2°51.191 11.8838 3.62436 29.984267 -2.871232
2007-04-23 07:26:39 51°18.387 2°51.18 11.8796 3.623739 29.982922 -2.871232
2007-04-23 07:26:44 51°18.395 2°51.17 11.8806 3.623117 29.979393 -2.871232
2007-04-23 07:26:49 51°18.402 2°51.16 11.8739 3.622806 29.97872 -2.871232
2007-04-23 07:26:54 51°18.408 2°51.15 11.8752 3.622392 29.974912 -2.871232
2007-04-23 07:26:59 51°18.415 2°51.14 11.8726 3.622185 29.973008 -2.871232
2007-04-23 07:27:04 51°18.42 2°51.13 11.8662 3.622185 29.973008 -2.871232
2007-04-23 07:27:09 51°18.426 2°51.12 11.8658 3.621667 29.968976 -2.871232
2007-04-23 07:27:14 51°18.43 2°51.111 11.8658 3.62146 29.967799 -2.871232
2007-04-23 07:27:19 51°18.435 2°51.101 11.8699 3.621149 29.967125 -2.871232
2007-04-23 07:27:25 51°18.439 2°51.09 11.87 3.620528 29.963595 -2.871232
2007-04-23 07:27:29 51°18.442 2°51.083 11.8737 3.620113 29.961969 -2.871232
2007-04-23 07:27:34 51°18.446 2°51.074 11.8769 3.620113 29.961969 -2.871232
2007-04-23 07:27:39 51°18.45 2°51.065 11.876 3.619906 29.962247 -2.871232
2007-04-23 07:27:44 51°18.453 2°51.056 11.8821 3.619803 29.963478 -2.871232
2007-04-23 07:27:49 51°18.457 2°51.048 11.8816 3.619699 29.963981 -2.871232
2007-04-23 07:27:54 51°18.46 2°51.04 11.8794 3.619388 29.961124 -2.871232
2007-04-23 07:27:59 51°18.464 2°51.032 11.8827 3.619803 29.963478 -2.871232
2007-04-23 07:28:04 51°18.468 2°51.024 11.8829 3.619803 29.963478 -2.871232
2007-04-23 07:28:09 51°18.472 2°51.017 11.885 3.619803 29.961295 -2.871232
2007-04-23 07:28:14 51°18.475 2°51.01 11.8823 3.62001 29.961017 -2.871232
2007-04-23 07:28:19 51°18.479 2°51.003 11.8825 3.62032 29.961691 -2.871232
2007-04-23 07:28:24 51°18.482 2°50.997 11.8782 3.620528 29.962141 -2.871232
2007-04-23 07:28:29 51°18.485 2°50.992 11.8795 3.620631 29.962365 -2.871232
2007-04-23 07:28:34 51°18.487 2°50.988 11.8751 3.620631 29.962365 -2.871232
2007-04-23 07:28:39 51°18.49 2°50.985 11.8763 3.620942 29.965221 -2.871232
2007-04-23 07:28:44 51°18.491 2°50.982 11.8748 3.620942 29.963767 -2.871232
2007-04-23 07:28:49 51°18.492 2°50.981 11.8735 3.621045 29.963991 -2.871232
2007-04-23 07:28:54 51°18.493 2°50.981 11.8737 3.621253 29.968077 -2.871232
2007-04-23 07:28:59 51°18.494 2°50.981 11.8691 3.621771 29.973565 -2.871232
2007-04-23 07:29:04 51°18.495 2°50.98 11.8679 3.621771 29.973565 -2.871232
2007-04-23 07:29:09 51°18.495 2°50.98 11.8662 3.621563 29.973116 -2.871232
2007-04-23 07:29:14 51°18.496 2°50.98 11.8642 3.621874 29.976701 -2.871232
2007-04-23 07:29:19 51°18.497 2°50.98 11.8638 3.621978 29.97838 -2.871232
2007-04-23 07:29:24 51°18.498 2°50.98 11.8599 3.622185 29.982469 -2.871232
2007-04-23 07:29:29 51°18.499 2°50.98 11.8555 3.622289 29.984149 -2.871232
2007-04-23 07:29:34 51°18.5 2°50.98 11.8563 3.622289 29.984149 -2.871232
2007-04-23 07:29:39 51°18.5 2°50.98 11.8531 3.622185 29.984653 -2.871232
2007-04-23 07:29:45 51°18.501 2°50.98 11.8471 3.621874 29.98398 -2.871232
2007-04-23 07:29:49 51°18.502 2°50.98 11.8445 3.621874 29.985436 -2.871232
2007-04-23 07:29:54 51°18.503 2°50.98 11.8416 3.621874 29.986893 -2.871232
2007-04-23 07:29:59 51°18.504 2°50.98 11.8409 3.621667 29.987901 -2.871232
2007-04-23 07:30:04 51°18.505 2°50.98 11.8405 3.621667 29.987901 -2.871232
2007-04-23 07:30:09 51°18.506 2°50.98 11.8348 3.621667 29.990086 -2.871232
2007-04-23 07:30:15 51°18.507 2°50.98 11.8295 3.621357 29.990142 -2.871232
2007-04-23 07:30:19 51°18.508 2°50.98 11.8268 3.621149 29.992609 -2.871232
2007-04-23 07:30:24 51°18.509 2°50.98 11.8255 3.620942 29.993618 -2.871232
2007-04-23 07:30:29 51°18.51 2°50.98 11.8284 3.620839 29.994123 -2.871232
2007-04-23 07:30:34 51°18.511 2°50.98 11.8221 3.620839 29.994123 -2.871232
2007-04-23 07:30:39 51°18.512 2°50.98 11.8185 3.620321 29.991544 -2.871232
2007-04-23 07:30:45 51°18.513 2°50.98 11.8145 3.620114 29.993283 -2.871232
2007-04-23 07:30:49 51°18.513 2°50.98 11.8138 3.619907 29.993564 -2.871232
2007-04-23 07:30:54 51°18.514 2°50.98 11.8157 3.619492 29.992667 -2.871232
2007-04-23 07:31:00 51°18.516 2°50.981 11.8152 3.619492 29.994126 -2.871232
2007-04-23 07:31:05 51°18.516 2°50.981 11.8142 3.619492 29.994126 -2.871232
2007-04-23 07:31:09 51°18.517 2°50.981 11.8097 3.619182 29.994182 -2.871232
2007-04-23 07:31:14 51°18.518 2°50.981 11.8064 3.618871 29.994239 -2.871232
2007-04-23 07:31:20 51°18.519 2°50.981 11.8043 3.61856 29.995026 -2.871232
2007-04-23 07:31:25 51°18.52 2°50.981 11.806 3.618457 29.995531 -2.871232
2007-04-23 07:31:29 51°18.521 2°50.981 11.804 3.618249 29.993624 -2.871232
2007-04-23 07:31:35 51°18.522 2°50.981 11.8057 3.618249 29.993624 -2.871232
2007-04-23 07:31:39 51°18.523 2°50.982 11.8057 3.618249 29.994353 -2.871232
2007-04-23 07:31:45 51°18.524 2°50.982 11.8043 3.618042 29.994635 -2.871232
2007-04-23 07:31:49 51°18.525 2°50.982 11.8085 3.617835 29.994916 -2.871232
2007-04-23 07:31:54 51°18.526 2°50.982 11.8078 3.617939 29.998059 -2.871232
2007-04-23 07:31:59 51°18.527 2°50.983 11.8078 3.617628 29.995927 -2.871232
2007-04-23 07:32:04 51°18.528 2°50.983 11.8097 3.617628 29.995927 -2.871232
2007-04-23 07:32:09 51°18.528 2°50.983 11.8092 3.617524 29.994973 -2.871232
2007-04-23 07:32:14 51°18.529 2°50.983 11.8107 3.617628 29.996657 -2.871232
2007-04-23 07:32:19 51°18.53 2°50.984 11.8123 3.617214 29.992841 -2.871232
2007-04-23 07:32:24 51°18.531 2°50.984 11.8075 3.617524 29.995703 -2.871232
2007-04-23 07:32:29 51°18.532 2°50.984 11.8063 3.617524 29.994973 -2.871232
2007-04-23 07:32:34 51°18.533 2°50.984 11.8059 3.617524 29.994973 -2.871232
2007-04-23 07:32:39 51°18.534 2°50.985 11.8075 3.617628 29.995197 -2.871232
2007-04-23 07:32:44 51°18.535 2°50.985 11.8085 3.617628 29.994468 -2.871232
2007-04-23 07:32:49 51°18.536 2°50.986 11.8092 3.617732 29.995422 -2.871232
2007-04-23 07:32:54 51°18.537 2°50.986 11.8048 3.617835 29.996375 -2.871232
2007-04-23 07:32:59 51°18.538 2°50.986 11.8042 3.617524 29.994244 -2.871232
2007-04-23 07:33:04 51°18.539 2°50.987 11.8029 3.617524 29.994244 -2.871232
2007-04-23 07:33:09 51°18.54 2°50.987 11.7986 3.617421 29.995479 -2.871232
2007-04-23 07:33:14 51°18.54 2°50.987 11.7995 3.617421 29.995479 -2.871232
2007-04-23 07:33:19 51°18.541 2°50.988 11.7981 3.617628 29.996657 -2.871232
2007-04-23 07:33:24 51°18.542 2°50.988 11.7962 3.617732 29.997611 -2.871232
2007-04-23 07:33:29 51°18.543 2°50.988 11.7977 3.617317 29.995255 -2.871232
2007-04-23 07:33:34 51°18.544 2°50.989 11.7928 3.617317 29.995255 -2.871232
2007-04-23 07:33:39 51°18.545 2°50.989 11.795 3.617421 29.996939 -2.871232
2007-04-23 07:33:44 51°18.546 2°50.99 11.7918 3.617317 29.998904 -2.871232
2007-04-23 07:33:49 51°18.546 2°50.99 11.7936 3.617317 29.999634 -2.871232
2007-04-23 07:33:54 51°18.547 2°50.99 11.7922 3.61711 29.999186 -2.871232
2007-04-23 07:33:59 51°18.548 2°50.991 11.794 3.61711 30.000646 -2.871232
2007-04-23 07:34:04 51°18.549 2°50.991 11.7908 3.61711 30.000646 -2.871232
2007-04-23 07:34:09 51°18.55 2°50.991 11.793 3.617007 30.000422 -2.871232
2007-04-23 07:34:14 51°18.551 2°50.992 11.7895 3.617007 30.001152 -2.871232
2007-04-23 07:34:19 51°18.552 2°50.992 11.7891 3.617007 30.001882 -2.871232
2007-04-23 07:34:25 51°18.553 2°50.993 11.7902 3.616696 29.99975 -2.871232
2007-04-23 07:34:29 51°18.554 2°50.993 11.7914 3.616696 29.99975 -2.871232
2007-04-23 07:34:34 51°18.555 2°50.993 11.7917 3.616696 29.99975 -2.871232
2007-04-23 07:34:39 51°18.556 2°50.994 11.794 3.616489 29.999302 -2.871232
2007-04-23 07:34:44 51°18.557 2°50.994 11.7929 3.616592 30.000986 -2.871232
2007-04-23 07:34:49 51°18.557 2°50.994 11.7966 3.616592 30.002447 -2.871232
2007-04-23 07:34:54 51°18.558 2°50.995 11.7972 3.616385 30.001268 -2.871232
2007-04-23 07:34:59 51°18.559 2°50.995 11.7989 3.616489 30.001492 -2.871232
2007-04-23 07:35:04 51°18.56 2°50.996 11.8011 3.616489 30.001492 -2.871232
2007-04-23 07:35:09 51°18.561 2°50.996 11.7991 3.616385 30.000538 -2.871232
2007-04-23 07:35:14 51°18.562 2°50.997 11.7981 3.616489 30.000032 -2.871232
2007-04-23 07:35:19 51°18.563 2°50.997 11.7999 3.616489 29.999302 -2.871232
2007-04-23 07:35:24 51°18.563 2°50.997 11.8006 3.616696 29.99975 -2.871232
2007-04-23 07:35:29 51°18.564 2°50.998 11.8023 3.616696 29.99902 -2.871232
2007-04-23 07:35:34 51°18.565 2°50.998 11.8037 3.616696 29.99902 -2.871232
2007-04-23 07:35:39 51°18.567 2°50.998 11.8068 3.616799 29.998514 -2.871232
2007-04-23 07:35:44 51°18.569 2°50.998 11.8086 3.616903 29.998738 -2.871232
2007-04-23 07:35:49 51°18.572 2°50.998 11.8079 3.616799 29.997054 -2.871232
2007-04-23 07:35:54 51°18.575 2°50.997 11.8116 3.617007 29.998232 -2.871232
2007-04-23 07:35:59 51°18.58 2°50.997 11.8151 3.61711 29.998456 -2.871232
2007-04-23 07:36:04 51°18.585 2°50.997 11.8154 3.61711 29.998456 -2.871232
2007-04-23 07:36:09 51°18.592 2°50.997 11.8206 3.61711 29.997726 -2.871232
2007-04-23 07:36:14 51°18.6 2°50.999 11.8211 3.617214 29.99722 -2.871232
2007-04-23 07:36:19 51°18.608 2°51.002 11.8245 3.617317 29.996714 -2.871232
2007-04-23 07:36:24 51°18.617 2°51.006 11.825 3.617317 29.995255 -2.871232
2007-04-23 07:36:29 51°18.625 2°51.012 11.8269 3.610998 29.934889 -2.871232
2007-04-23 07:36:34 51°18.634 2°51.02 11.8258 3.610998 29.934889 -2.871232
2007-04-23 07:36:39 51°18.643 2°51.03 11.8295 3.617628 29.993008 -2.871232
2007-04-23 07:36:45 51°18.653 2°51.045 11.8277 3.617628 29.99009 -2.871232
2007-04-23 07:36:49 51°18.659 2°51.056 11.8298 3.616074 29.97287 -2.871232
2007-04-23 07:36:54 51°18.666 2°51.073 11.8298 3.615245 29.963056 -2.871232
2007-04-23 07:36:59 51°18.672 2°51.092 11.8348 3.614831 29.957785 -2.871232
2007-04-23 07:37:04 51°18.677 2°51.112 11.8431 3.614831 29.957785 -2.871232
2007-04-23 07:37:09 51°18.681 2°51.134 11.8425 3.615038 29.958235 -2.871232
2007-04-23 07:37:14 51°18.683 2°51.156 11.8428 3.616592 29.971077 -2.871232
2007-04-23 07:37:19 51°18.686 2°51.179 11.8424 3.618456 29.987509 -2.871232
2007-04-23 07:37:24 51°18.689 2°51.203 11.8402 3.618767 29.98964 -2.871232
2007-04-23 07:37:29 51°18.692 2°51.227 11.8411 3.617731 29.97792 -2.871232
2007-04-23 07:37:34 51°18.695 2°51.251 11.8345 3.617731 29.97792 -2.871232
2007-04-23 07:37:39 51°18.699 2°51.275 11.8299 3.618353 29.980724 -2.871232
2007-04-23 07:37:44 51°18.703 2°51.299 11.8265 3.618663 29.980668 -2.871232
2007-04-23 07:37:49 51°18.708 2°51.324 11.8279 3.618249 29.976127 -2.871232
2007-04-23 07:37:54 51°18.713 2°51.348 11.8315 3.619285 29.985658 -2.871232
2007-04-23 07:37:59 51°18.718 2°51.373 11.8365 3.618871 29.982574 -2.871232
2007-04-23 07:38:04 51°18.724 2°51.397 11.8419 3.618871 29.982574 -2.871232
2007-04-23 07:38:09 51°18.729 2°51.422 11.8476 3.618664 29.983583 -2.871232
2007-04-23 07:38:14 51°18.735 2°51.446 11.8501 3.613588 29.940521 -2.871232
2007-04-23 07:38:19 51°18.741 2°51.47 11.8488 3.617835 29.981059 -2.871232
2007-04-23 07:38:25 51°18.749 2°51.5 11.8501 3.617628 29.979153 -2.871232
2007-04-23 07:38:29 51°18.753 2°51.519 11.8494 3.61742 29.975789 -2.871232
2007-04-23 07:38:34 51°18.759 2°51.544 11.8532 3.61742 29.975789 -2.871232
2007-04-23 07:38:39 51°18.765 2°51.568 11.8585 3.617628 29.97478 -2.871232
2007-04-23 07:38:44 51°18.771 2°51.593 11.8647 3.615867 29.954936 -2.871232
2007-04-23 07:38:49 51°18.777 2°51.618 11.8755 3.616281 29.955835 -2.871232
2007-04-23 07:38:54 51°18.783 2°51.642 11.8838 3.61742 29.964861 -2.871232
2007-04-23 07:38:59 51°18.788 2°51.668 11.8906 3.616177 29.951971 -2.871232
2007-04-23 07:39:05 51°18.795 2°51.698 11.897 3.616177 29.951971 -2.871232
2007-04-23 07:39:09 51°18.799 2°51.719 11.8998 3.617317 29.960268 -2.871232
2007-04-23 07:39:14 51°18.806 2°51.746 11.8999 3.617006 29.954498 -2.871232
2007-04-23 07:39:19 51°18.812 2°51.773 11.8979 3.614416 29.924866 -2.871232
2007-04-23 07:39:24 51°18.818 2°51.8 11.8965 3.615555 29.928072 -2.871232
2007-04-23 07:39:29 51°18.825 2°51.827 11.8953 3.615866 29.923662 -2.871232
2007-04-23 07:39:34 51°18.831 2°51.855 11.8989 3.615866 29.923662 -2.871232
2007-04-23 07:39:39 51°18.838 2°51.882 11.8988 3.614623 29.90643 -2.871232
2007-04-23 07:39:44 51°18.844 2°51.91 11.9026 3.616798 29.921333 -2.871232
2007-04-23 07:39:49 51°18.851 2°51.938 11.9073 3.617627 29.926768 -2.871232
2007-04-23 07:39:54 51°18.857 2°51.965 11.9131 3.61773 29.926993 -2.871232
2007-04-23 07:39:59 51°18.863 2°51.993 11.9198 3.617005 29.920332 -2.871232
2007-04-23 07:40:04 51°18.87 2°52.02 11.9242 3.617005 29.920332 -2.871232
2007-04-23 07:40:09 51°18.876 2°52.048 11.9248 3.616695 29.917477 -2.871232
2007-04-23 07:40:14 51°18.882 2°52.076 11.9267 3.615659 29.90651 -2.871232
2007-04-23 07:40:19 51°18.889 2°52.104 11.9276 3.61338 29.883403 -2.871232
2007-04-23 07:40:24 51°18.895 2°52.131 11.9311 3.614001 29.885486 -2.871232
2007-04-23 07:40:29 51°18.902 2°52.159 11.9311 3.615037 29.889922 -2.871232
2007-04-23 07:40:34 51°18.908 2°52.187 11.9298 3.615037 29.889922 -2.871232
2007-04-23 07:40:39 51°18.915 2°52.215 11.9315 3.611618 29.854193 -2.871232
2007-04-23 07:40:44 51°18.921 2°52.243 11.9329 3.615555 29.886703 -2.871232
2007-04-23 07:40:49 51°18.927 2°52.271 11.9334 3.615658 29.88548 -2.871232
2007-04-23 07:40:54 51°18.933 2°52.298 11.9349 3.614104 29.869046 -2.871232
2007-04-23 07:40:59 51°18.939 2°52.326 11.9347 3.613587 29.862845 -2.871232
2007-04-23 07:41:05 51°18.947 2°52.359 11.9349 3.613587 29.862845 -2.871232
2007-04-23 07:41:09 51°18.952 2°52.382 11.9367 3.61483 29.872804 -2.871232
2007-04-23 07:41:14 51°18.958 2°52.41 11.937 3.615037 29.873981 -2.871232
2007-04-23 07:41:19 51°18.964 2°52.437 11.9364 3.615865 29.880137 -2.871232
2007-04-23 07:41:24 51°18.971 2°52.465 11.9341 3.616176 29.882264 -2.871232
2007-04-23 07:41:29 51°18.977 2°52.493 11.9339 3.61483 29.869183 -2.871232
2007-04-23 07:41:34 51°18.983 2°52.521 11.9333 3.61483 29.869183 -2.871232
2007-04-23 07:41:39 51°18.99 2°52.549 11.9336 3.61369 29.858004 -2.871232
2007-04-23 07:41:44 51°18.996 2°52.577 11.9342 3.61514 29.870587 -2.871232
2007-04-23 07:41:49 51°19.002 2°52.604 11.9384 3.614622 29.865111 -2.871232
2007-04-23 07:41:54 51°19.009 2°52.632 11.9414 3.613794 29.857507 -2.871232
2007-04-23 07:41:59 51°19.015 2°52.66 11.9452 3.610168 29.826416 -2.871232
2007-04-23 07:42:04 51°19.021 2°52.688 11.9474 3.610168 29.826416 -2.871232
2007-04-23 07:42:09 51°19.027 2°52.716 11.9522 3.615244 29.872985 -2.871232
2007-04-23 07:42:14 51°19.033 2°52.744 11.9558 3.614519 29.865608 -2.871232
2007-04-23 07:42:19 51°19.039 2°52.772 11.9546 3.61224 29.844699 -2.871232
2007-04-23 07:42:24 51°19.046 2°52.799 11.9561 3.615658 29.873891 -2.871232
2007-04-23 07:42:29 51°19.052 2°52.827 11.959 3.612861 29.845337 -2.871232
2007-04-23 07:42:34 51°19.058 2°52.855 11.9598 3.612861 29.845337 -2.871232
2007-04-23 07:42:39 51°19.065 2°52.883 11.9614 3.614104 29.85457 -2.871232
2007-04-23 07:42:44 51°19.071 2°52.911 11.9668 3.611411 29.826975 -2.871232
2007-04-23 07:42:49 51°19.077 2°52.938 11.9661 3.612965 29.837611 -2.871232
2007-04-23 07:42:54 51°19.083 2°52.966 11.9702 3.61628 29.866564 -2.871232
2007-04-23 07:42:59 51°19.09 2°52.994 11.9698 3.617626 29.876743 -2.871232
2007-04-23 07:43:04 51°19.096 2°53.022 11.9712 3.617626 29.876743 -2.871232
2007-04-23 07:43:09 51°19.102 2°53.05 11.9722 3.617315 29.873169 -2.871232
2007-04-23 07:43:14 51°19.109 2°53.077 11.9745 3.612757 29.829207 -2.871232
2007-04-23 07:43:19 51°19.115 2°53.105 11.9755 3.615865 29.855531 -2.871232
2007-04-23 07:43:25 51°19.123 2°53.138 11.9773 3.617212 29.865709 -2.871232
2007-04-23 07:43:29 51°19.128 2°53.16 11.9762 3.617833 29.86996 -2.871232
2007-04-23 07:43:34 51°19.134 2°53.188 11.9744 3.617833 29.86996 -2.871232
2007-04-23 07:43:39 51°19.14 2°53.216 11.9741 3.614725 29.840025 -2.871232
2007-04-23 07:43:44 51°19.146 2°53.244 11.9725 3.617626 29.865168 -2.871232
2007-04-23 07:43:49 51°19.152 2°53.272 11.9721 3.614104 29.831438 -2.871232
2007-04-23 07:43:54 51°19.159 2°53.3 11.9699 3.616797 29.853957 -2.871232
2007-04-23 07:43:59 51°19.164 2°53.328 11.9694 3.619594 29.878871 -2.871232
2007-04-23 07:44:04 51°19.171 2°53.356 11.9659 3.619594 29.878871 -2.871232
2007-04-23 07:44:09 51°19.177 2°53.384 11.9673 3.616383 29.849436 -2.871232
2007-04-23 07:44:14 51°19.183 2°53.412 11.9703 3.616486 29.851108 -2.871232
2007-04-23 07:44:19 51°19.189 2°53.44 11.9709 3.619491 29.878645 -2.871232
2007-04-23 07:44:24 51°19.195 2°53.468 11.9735 3.614933 29.838311 -2.871232
2007-04-23 07:44:29 51°19.202 2°53.496 11.9743 3.620423 29.890086 -2.871232
2007-04-23 07:44:34 51°19.208 2°53.524 11.981 3.620423 29.890086 -2.871232
2007-04-23 07:44:39 51°19.214 2°53.552 11.9863 3.616072 29.850924 -2.871232
2007-04-23 07:44:44 51°19.221 2°53.58 11.9909 3.615865 29.849748 -2.871232
2007-04-23 07:44:49 51°19.227 2°53.607 11.9956 3.614104 29.832883 -2.871232
2007-04-23 07:44:54 51°19.233 2°53.635 11.9944 3.616072 29.850201 -2.871232
2007-04-23 07:44:59 51°19.239 2°53.664 11.9895 3.616797 29.85468 -2.871232
2007-04-23 07:45:04 51°19.246 2°53.691 11.9892 3.616797 29.85468 -2.871232
2007-04-23 07:45:09 51°19.252 2°53.72 11.9881 3.617522 29.859157 -2.871232
2007-04-23 07:45:14 51°19.258 2°53.747 11.988 3.618558 29.865037 -2.871232
2007-04-23 07:45:19 51°19.264 2°53.775 11.9877 3.618144 29.856903 -2.871232
2007-04-23 07:45:24 51°19.27 2°53.803 11.9888 3.617419 29.846647 -2.871232
2007-04-23 07:45:29 51°19.277 2°53.831 11.9922 3.618351 29.854467 -2.871232
2007-04-23 07:45:34 51°19.283 2°53.86 11.9936 3.618351 29.854467 -2.871232
2007-04-23 07:45:39 51°19.29 2°53.888 11.9908 3.618558 29.856365 -2.871232
2007-04-23 07:45:45 51°19.297 2°53.921 11.9912 3.617626 29.848545 -2.871232
2007-04-23 07:45:49 51°19.302 2°53.944 11.9934 3.617937 29.852837 -2.871232
2007-04-23 07:45:54 51°19.308 2°53.972 11.9944 3.619905 29.870872 -2.871232
2007-04-23 07:45:59 51°19.315 2°54 12.0019 3.619698 29.867528 -2.871232
2007-04-23 07:46:04 51°19.321 2°54.027 12.0121 3.619698 29.867528 -2.871232
2007-04-23 07:46:09 51°19.328 2°54.055 12.0204 3.618247 29.853518 -2.871232
2007-04-23 07:46:14 51°19.334 2°54.083 12.032 3.618454 29.854693 -2.871232
2007-04-23 07:46:19 51°19.34 2°54.111 12.039 3.618765 29.856818 -2.871232
2007-04-23 07:46:24 51°19.347 2°54.138 12.047 3.61918 29.859892 -2.871232
2007-04-23 07:46:29 51°19.353 2°54.166 12.0525 3.619283 29.858674 -2.871232
2007-04-23 07:46:34 51°19.359 2°54.194 12.0591 3.619283 29.858674 -2.871232
2007-04-23 07:46:39 51°19.365 2°54.222 12.0622 3.618765 29.848151 -2.871232
2007-04-23 07:46:44 51°19.371 2°54.249 12.0654 3.62063 29.859452 -2.871232
2007-04-23 07:46:49 51°19.378 2°54.277 12.0697 3.620319 29.847222 -2.871232
2007-04-23 07:46:54 51°19.384 2°54.305 12.0757 3.623633 29.869629 -2.871232
2007-04-23 07:46:59 51°19.39 2°54.333 12.0818 3.620526 29.834693 -2.871232
2007-04-23 07:47:04 51°19.396 2°54.36 12.0874 3.620526 29.834693 -2.871232
2007-04-23 07:47:09 51°19.402 2°54.388 12.0936 3.622079 29.842422 -2.871232
2007-04-23 07:47:14 51°19.409 2°54.416 12.0952 3.6198 29.81653 -2.871232
2007-04-23 07:47:19 51°19.415 2°54.443 12.0957 3.624462 29.854846 -2.871232
2007-04-23 07:47:24 51°19.421 2°54.471 12.0971 3.62643 29.868523 -2.871232
2007-04-23 07:47:29 51°19.427 2°54.499 12.0985 3.626844 29.866544 -2.871232
2007-04-23 07:47:34 51°19.433 2°54.527 12.1016 3.626844 29.866544 -2.871232
2007-04-23 07:47:39 51°19.44 2°54.554 12.1076 3.622286 29.819825 -2.871232
2007-04-23 07:47:45 51°19.447 2°54.588 12.1151 3.623944 29.829937 -2.871232
2007-04-23 07:47:49 51°19.452 2°54.609 12.1206 3.624979 29.835086 -2.871232
2007-04-23 07:47:54 51°19.458 2°54.637 12.1276 3.624151 29.825353 -2.871232
2007-04-23 07:47:59 51°19.464 2°54.665 12.1316 3.62674 29.846862 -2.871232
2007-04-23 07:48:04 51°19.47 2°54.693 12.1329 3.62674 29.846862 -2.871232
2007-04-23 07:48:09 51°19.476 2°54.72 12.1336 3.624565 29.824103 -2.871232
2007-04-23 07:48:14 51°19.482 2°54.748 12.1347 3.62788 29.850795 -2.871232
2007-04-23 07:48:19 51°19.489 2°54.775 12.1355 3.627673 29.844582 -2.871232
2007-04-23 07:48:24 51°19.495 2°54.803 12.1351 3.621664 29.78395 -2.871232
2007-04-23 07:48:29 51°19.501 2°54.831 12.1369 3.62674 29.824557 -2.871232
2007-04-23 07:48:34 51°19.507 2°54.858 12.1368 3.62674 29.824557 -2.871232
2007-04-23 07:48:39 51°19.514 2°54.886 12.1398 3.625704 29.811503 -2.871232
2007-04-23 07:48:44 51°19.52 2°54.914 12.1447 3.623011 29.78404 -2.871232
2007-04-23 07:48:49 51°19.526 2°54.941 12.1561 3.621353 29.767475 -2.871232
2007-04-23 07:48:54 51°19.532 2°54.969 12.1693 3.626429 29.813094 -2.871232
2007-04-23 07:48:59 51°19.539 2°54.997 12.1823 3.623736 29.787789 -2.871232
2007-04-23 07:49:04 51°19.545 2°55.024 12.1933 3.623736 29.787789 -2.871232
2007-04-23 07:49:09 51°19.551 2°55.052 12.2031 3.615863 29.714503 -2.871232
2007-04-23 07:49:14 51°19.558 2°55.08 12.2155 3.622078 29.76979 -2.871232
2007-04-23 07:49:19 51°19.564 2°55.107 12.2299 3.616381 29.713501 -2.871232
2007-04-23 07:49:24 51°19.571 2°55.135 12.2364 3.620628 29.745087 -2.871232
2007-04-23 07:49:29 51°19.577 2°55.162 12.2448 3.615137 29.686427 -2.871232
2007-04-23 07:49:34 51°19.583 2°55.19 12.249 3.615137 29.686427 -2.871232
2007-04-23 07:49:39 51°19.589 2°55.217 12.2547 3.623321 29.74888 -2.871232
2007-04-23 07:49:44 51°19.596 2°55.245 12.2586 3.622596 29.732251 -2.871232
2007-04-23 07:49:49 51°19.602 2°55.272 12.2632 3.624046 29.734024 -2.871232
2007-04-23 07:49:54 51°19.608 2°55.299 12.2687 3.625289 29.735338 -2.871232
2007-04-23 07:49:59 51°19.615 2°55.327 12.2708 3.628396 29.754347 -2.871232
2007-04-23 07:50:05 51°19.623 2°55.36 12.2749 3.628396 29.754347 -2.871232
2007-04-23 07:50:09 51°19.627 2°55.382 12.2773 3.623631 29.703819 -2.871232
2007-04-23 07:50:14 51°19.633 2°55.41 12.2808 3.633472 29.787691 -2.871232
2007-04-23 07:50:19 51°19.64 2°55.437 12.2845 3.633576 29.782911 -2.871232
2007-04-23 07:50:24 51°19.646 2°55.465 12.2895 3.633265 29.774362 -2.871232
2007-04-23 07:50:29 51°19.652 2°55.492 12.2933 3.633265 29.770073 -2.871232
2007-04-23 07:50:34 51°19.658 2°55.52 12.2952 3.633265 29.770073 -2.871232
2007-04-23 07:50:39 51°19.665 2°55.547 12.2965 3.633368 29.766728 -2.871232
2007-04-23 07:50:44 51°19.671 2°55.575 12.2991 3.633472 29.764098 -2.871232
2007-04-23 07:50:50 51°19.679 2°55.608 12.3034 3.633368 29.760298 -2.871232
2007-04-23 07:50:54 51°19.683 2°55.63 12.3079 3.633264 29.755072 -2.871232
2007-04-23 07:50:59 51°19.69 2°55.657 12.3124 3.633575 29.754328 -2.871232
2007-04-23 07:51:04 51°19.696 2°55.685 12.3186 3.633575 29.754328 -2.871232
2007-04-23 07:51:09 51°19.702 2°55.712 12.3266 3.633472 29.749818 -2.871232
2007-04-23 07:51:14 51°19.709 2°55.74 12.3316 3.633575 29.747905 -2.871232
2007-04-23 07:51:19 51°19.715 2°55.767 12.3358 3.633575 29.745051 -2.871232
2007-04-23 07:51:24 51°19.721 2°55.795 12.3403 3.633575 29.741485 -2.871232
2007-04-23 07:51:29 51°19.727 2°55.822 12.3453 3.633679 29.738861 -2.871232
2007-04-23 07:51:34 51°19.734 2°55.85 12.3504 3.633679 29.738861 -2.871232
2007-04-23 07:51:39 51°19.74 2°55.877 12.3517 3.634093 29.739062 -2.871232
2007-04-23 07:51:44 51°19.746 2°55.905 12.3554 3.6343 29.735241 -2.871232
2007-04-23 07:51:49 51°19.752 2°55.932 12.3611 3.634818 29.734246 -2.871232
2007-04-23 07:51:54 51°19.759 2°55.96 12.3706 3.635336 29.733964 -2.871232
2007-04-23 07:51:59 51°19.765 2°55.987 12.3791 3.635232 29.727325 -2.871232
2007-04-23 07:52:04 51°19.771 2°56.015 12.387 3.635232 29.727325 -2.871232
2007-04-23 07:52:09 51°19.777 2°56.042 12.3948 3.635646 29.726815 -2.871232
2007-04-23 07:52:14 51°19.783 2°56.07 12.3973 3.63575 29.724196 -2.871232
2007-04-23 07:52:19 51°19.789 2°56.097 12.4025 3.635853 29.721578 -2.871232
2007-04-23 07:52:25 51°19.797 2°56.13 12.406 3.636268 29.719647 -2.871232
2007-04-23 07:52:29 51°19.801 2°56.152 12.4105 3.636682 29.716294 -2.871232
2007-04-23 07:52:34 51°19.807 2°56.179 12.4129 3.636682 29.716294 -2.871232
2007-04-23 07:52:39 51°19.813 2°56.207 12.4148 3.637303 29.714822 -2.871232
2007-04-23 07:52:44 51°19.82 2°56.234 12.4167 3.637407 29.708653 -2.871232
2007-04-23 07:52:49 51°19.826 2°56.262 12.4218 3.637718 29.706498 -2.871232
2007-04-23 07:52:54 51°19.833 2°56.289 12.4293 3.637925 29.703404 -2.871232
2007-04-23 07:52:59 51°19.839 2°56.316 12.4417 3.637925 29.699142 -2.871232
2007-04-23 07:53:04 51°19.845 2°56.344 12.4541 3.637925 29.699142 -2.871232
2007-04-23 07:53:09 51°19.851 2°56.371 12.4716 3.63751 29.691126 -2.871232
2007-04-23 07:53:14 51°19.857 2°56.398 12.4861 3.637303 29.687119 -2.871232
2007-04-23 07:53:19 51°19.863 2°56.425 12.4909 3.636889 29.679816 -2.871232
2007-04-23 07:53:24 51°19.869 2°56.453 12.4979 3.636889 29.67556 -2.871232
2007-04-23 07:53:29 51°19.875 2°56.48 12.5007 3.637303 29.672933 -2.871232
2007-04-23 07:53:34 51°19.881 2°56.507 12.4997 3.637303 29.672933 -2.871232
2007-04-23 07:53:39 51°19.888 2°56.534 12.4964 3.637924 29.667932 -2.871232
2007-04-23 07:53:44 51°19.893 2°56.562 12.4925 3.639271 29.669501 -2.871232
2007-04-23 07:53:49 51°19.9 2°56.588 12.4897 3.639996 29.663319 -2.871232
2007-04-23 07:53:55 51°19.907 2°56.622 12.4883 3.640824 29.661619 -2.871232
2007-04-23 07:53:59 51°19.913 2°56.643 12.4854 3.640928 29.656189 -2.871232
2007-04-23 07:54:05 51°19.92 2°56.676 12.4862 3.640928 29.656189 -2.871232
2007-04-23 07:54:09 51°19.925 2°56.698 12.4851 3.640617 29.649842 -2.871232
2007-04-23 07:54:14 51°19.931 2°56.725 12.4866 3.625492 29.511685 -2.871232
2007-04-23 07:54:19 51°19.937 2°56.753 12.4892 3.620416 29.465813 -2.871232
2007-04-23 07:54:25 51°19.944 2°56.785 12.4918 3.639581 29.641887 -2.871232
2007-04-23 07:54:29 51°19.95 2°56.807 12.4964 3.639167 29.639553 -2.871232
2007-04-23 07:54:34 51°19.956 2°56.834 12.5006 3.639167 29.639553 -2.871232
2007-04-23 07:54:39 51°19.962 2°56.861 12.5105 3.638545 29.635344 -2.871232
2007-04-23 07:54:45 51°19.97 2°56.894 12.5215 3.638234 29.631826 -2.871232
2007-04-23 07:54:49 51°19.975 2°56.916 12.5352 3.638131 29.63089 -2.871232
2007-04-23 07:54:54 51°19.982 2°56.943 12.541 3.637924 29.627602 -2.871232
2007-04-23 07:54:59 51°19.988 2°56.969 12.545 3.637924 29.625483 -2.871232
2007-04-23 07:55:04 51°19.994 2°56.996 12.5437 3.637924 29.625483 -2.871232
2007-04-23 07:55:09 51°20.001 2°57.023 12.5397 3.63782 29.620308 -2.871232
2007-04-23 07:55:14 51°20.007 2°57.05 12.5364 3.63782 29.615366 -2.871232
2007-04-23 07:55:19 51°20.013 2°57.077 12.5335 3.638338 29.611578 -2.871232
2007-04-23 07:55:24 51°20.02 2°57.104 12.528 3.638234 29.602177 -2.871232
2007-04-23 07:55:30 51°20.027 2°57.136 12.5256 3.637923 29.592319 -2.871232
2007-04-23 07:55:34 51°20.031 2°57.158 12.5236 3.637923 29.592319 -2.871232
2007-04-23 07:55:39 51°20.037 2°57.185 12.5197 3.637509 29.585053 -2.871232
2007-04-23 07:55:44 51°20.043 2°57.212 12.5129 3.636887 29.578031 -2.871232
2007-04-23 07:55:49 51°20.05 2°57.24 12.5094 3.635747 29.569148 -2.871232
2007-04-23 07:55:54 51°20.056 2°57.267 12.5082 3.634919 29.563775 -2.871232
2007-04-23 07:55:59 51°20.062 2°57.294 12.5052 3.633676 29.55466 -2.871232
2007-04-23 07:56:04 51°20.068 2°57.321 12.4993 3.633676 29.55466 -2.871232
2007-04-23 07:56:09 51°20.074 2°57.348 12.5002 3.633054 29.551157 -2.871232
2007-04-23 07:56:14 51°20.08 2°57.375 12.4982 3.632122 29.545552 -2.871232
2007-04-23 07:56:19 51°20.086 2°57.403 12.4986 3.630879 29.538545 -2.871232
2007-04-23 07:56:24 51°20.092 2°57.43 12.4984 3.629636 29.530834 -2.871232
2007-04-23 07:56:29 51°20.098 2°57.457 12.5004 3.628496 29.52265 -2.871232
2007-04-23 07:56:34 51°20.105 2°57.485 12.5019 3.628496 29.52265 -2.871232
2007-04-23 07:56:39 51°20.111 2°57.512 12.502 3.627668 29.51868 -2.871232
2007-04-23 07:56:45 51°20.118 2°57.545 12.5036 3.627046 29.515878 -2.871232
2007-04-23 07:56:49 51°20.123 2°57.567 12.5065 3.625596 29.50418 -2.871232
2007-04-23 07:56:54 51°20.129 2°57.594 12.5091 3.625285 29.502779 -2.871232
2007-04-23 07:56:59 51°20.135 2°57.621 12.5116 3.62456 29.496226 -2.871232
2007-04-23 07:57:05 51°20.143 2°57.654 12.5139 3.62456 29.496226 -2.871232
2007-04-23 07:57:09 51°20.148 2°57.676 12.5154 3.622488 29.476804 -2.871232
2007-04-23 07:57:14 51°20.154 2°57.703 12.5183 3.622074 29.472358 -2.871232
2007-04-23 07:57:19 51°20.16 2°57.73 12.5217 3.621763 29.468848 -2.871232
2007-04-23 07:57:24 51°20.166 2°57.758 12.5244 3.621452 29.464636 -2.871232
2007-04-23 07:57:30 51°20.173 2°57.79 12.527 3.621349 29.460892 -2.871232
2007-04-23 07:57:34 51°20.178 2°57.812 12.5295 3.621349 29.460892 -2.871232
2007-04-23 07:57:39 51°20.184 2°57.84 12.533 3.621038 29.455979 -2.871232
2007-04-23 07:57:44 51°20.19 2°57.867 12.5276 3.621038 29.453873 -2.871232
2007-04-23 07:57:49 51°20.197 2°57.894 12.5245 3.62083 29.449897 -2.871232
2007-04-23 07:57:54 51°20.203 2°57.921 12.5197 3.620623 29.445922 -2.871232
2007-04-23 07:57:59 51°20.209 2°57.949 12.516 3.620623 29.443817 -2.871232
2007-04-23 07:58:04 51°20.216 2°57.976 12.5149 3.620623 29.443817 -2.871232
2007-04-23 07:58:09 51°20.222 2°58.003 12.5186 3.621141 29.445688 -2.871232
2007-04-23 07:58:15 51°20.229 2°58.036 12.5166 3.622177 29.452235 -2.871232
2007-04-23 07:58:19 51°20.234 2°58.058 12.5178 3.621763 29.449195 -2.871232
2007-04-23 07:58:25 51°20.241 2°58.091 12.5191 3.621245 29.445922 -2.871232
2007-04-23 07:58:29 51°20.246 2°58.113 12.5203 3.62052 29.442882 -2.871232
2007-04-23 07:58:34 51°20.252 2°58.14 12.5181 3.61938 29.433996 -2.871232
2007-04-23 07:58:39 51°20.258 2°58.168 12.5158 3.61938 29.433996 -2.871232
2007-04-23 07:58:44 51°20.264 2°58.195 12.5174 3.618033 29.421838 -2.871232
2007-04-23 07:58:49 51°20.27 2°58.223 12.5156 3.617723 29.419733 -2.871232
2007-04-23 07:58:54 51°20.277 2°58.25 12.5132 3.616998 29.413186 -2.871232
2007-04-23 07:58:59 51°20.283 2°58.277 12.5177 3.616272 29.405939 -2.871232
2007-04-23 07:59:05 51°20.291 2°58.31 12.5207 3.616272 29.405939 -2.871232
2007-04-23 07:59:09 51°20.296 2°58.332 12.5234 3.615755 29.401263 -2.871232
2007-04-23 07:59:14 51°20.301 2°58.359 12.528 3.615237 29.397288 -2.871232
2007-04-23 07:59:19 51°20.308 2°58.386 12.5303 3.614719 29.393312 -2.871232
2007-04-23 07:59:25 51°20.315 2°58.419 12.5342 3.614304 29.390272 -2.871232
2007-04-23 07:59:29 51°20.32 2°58.441 12.5338 3.613683 29.384661 -2.871232
2007-04-23 07:59:34 51°20.327 2°58.469 12.534 3.613683 29.384661 -2.871232
2007-04-23 07:59:39 51°20.333 2°58.496 12.5365 3.613476 29.381391 -2.871232
2007-04-23 07:59:44 51°20.339 2°58.523 12.538 3.613372 29.378356 -2.871232
2007-04-23 07:59:49 51°20.345 2°58.551 12.54 3.613579 29.378127 -2.871232
2007-04-23 07:59:54 51°20.352 2°58.578 12.54 3.613683 29.375563 -2.871232
2007-04-23 07:59:59 51°20.358 2°58.605 12.5354 3.614097 29.377204 -2.871232
2007-04-23 08:00:04 51°20.364 2°58.632 12.5311 3.614097 29.377204 -2.871232
2007-04-23 08:00:10 51°20.372 2°58.664 12.5252 3.614201 29.376739 -2.871232
2007-04-23 08:00:14 51°20.377 2°58.686 12.5183 3.614615 29.379079 -2.871232
2007-04-23 08:00:19 51°20.383 2°58.713 12.518 3.615236 29.383288 -2.871232
2007-04-23 08:00:24 51°20.389 2°58.74 12.5168 3.615858 29.387497 -2.871232
2007-04-23 08:00:29 51°20.396 2°58.767 12.5158 3.616065 29.390066 -2.871232
2007-04-23 08:00:35 51°20.403 2°58.8 12.5093 3.616065 29.390066 -2.871232
2007-04-23 08:00:39 51°20.408 2°58.821 12.5062 3.616065 29.391466 -2.871232
2007-04-23 08:00:44 51°20.414 2°58.848 12.4955 3.615962 29.393331 -2.871232
2007-04-23 08:00:49 51°20.42 2°58.876 12.4836 3.61534 29.391221 -2.871232
2007-04-23 08:00:54 51°20.426 2°58.903 12.4789 3.614615 29.388176 -2.871232
2007-04-23 08:00:59 51°20.432 2°58.93 12.4721 3.613579 29.380926 -2.871232
2007-04-23 08:01:05 51°20.439 2°58.962 12.4699 3.613579 29.380926 -2.871232
2007-04-23 08:01:09 51°20.444 2°58.984 12.4679 3.611818 29.367829 -2.871232
2007-04-23 08:01:14 51°20.45 2°59.011 12.4716 3.610368 29.358236 -2.871232
2007-04-23 08:01:19 51°20.456 2°59.038 12.4688 3.608089 29.343258 -2.871232
2007-04-23 08:01:24 51°20.462 2°59.065 12.4602 3.6055 29.327567 -2.871232
2007-04-23 08:01:29 51°20.468 2°59.092 12.4484 3.603842 29.318892 -2.871232
2007-04-23 08:01:34 51°20.474 2°59.119 12.4362 3.603842 29.318892 -2.871232
2007-04-23 08:01:39 51°20.48 2°59.146 12.4309 3.601253 29.302494 -2.871232
2007-04-23 08:01:45 51°20.487 2°59.178 12.4151 3.599699 29.290556 -2.871232
2007-04-23 08:01:49 51°20.492 2°59.2 12.4125 3.59856 29.280963 -2.871232
2007-04-23 08:01:54 51°20.498 2°59.227 12.4035 3.594106 29.243527 -2.871232
2007-04-23 08:01:59 51°20.504 2°59.254 12.402 3.594727 29.255421 -2.871232
2007-04-23 08:02:04 51°20.51 2°59.28 12.3938 3.594727 29.255421 -2.871232
2007-04-23 08:02:09 51°20.515 2°59.307 12.3875 3.59162 29.235722 -2.871232
2007-04-23 08:02:14 51°20.521 2°59.334 12.3773 3.589237 29.22187 -2.871232
2007-04-23 08:02:19 51°20.527 2°59.361 12.3628 3.588202 29.220184 -2.871232
2007-04-23 08:02:24 51°20.533 2°59.388 12.3606 3.58613 29.209133 -2.871232
2007-04-23 08:02:29 51°20.539 2°59.415 12.3437 3.585612 29.211429 -2.871232
2007-04-23 08:02:34 51°20.545 2°59.442 12.3452 3.585612 29.211429 -2.871232
2007-04-23 08:02:39 51°20.55 2°59.469 12.3429 3.581573 29.182575 -2.871232
2007-04-23 08:02:44 51°20.556 2°59.496 12.34 3.581469 29.187917 -2.871232
2007-04-23 08:02:49 51°20.562 2°59.523 12.3433 3.578776 29.170533 -2.871232
2007-04-23 08:02:54 51°20.568 2°59.55 12.3372 3.577016 29.16367 -2.871232
2007-04-23 08:02:59 51°20.574 2°59.577 12.3426 3.57598 29.161971 -2.871232
2007-04-23 08:03:04 51°20.58 2°59.604 12.3407 3.57598 29.161971 -2.871232
2007-04-23 08:03:09 51°20.586 2°59.63 12.3417 3.573701 29.14902 -2.871232
2007-04-23 08:03:14 51°20.591 2°59.657 12.3431 3.574323 29.15953 -2.871232
2007-04-23 08:03:19 51°20.597 2°59.684 12.3459 3.574116 29.160446 -2.871232
2007-04-23 08:03:25 51°20.604 2°59.716 12.3508 3.573494 29.156914 -2.871232
2007-04-23 08:03:29 51°20.609 2°59.738 12.3576 3.573184 29.155496 -2.871232
2007-04-23 08:03:34 51°20.616 2°59.765 12.3637 3.573184 29.155496 -2.871232
2007-04-23 08:03:39 51°20.622 2°59.792 12.3743 3.573598 29.159247 -2.871232
2007-04-23 08:03:45 51°20.629 2°59.824 12.3805 3.573494 29.15831 -2.871232
2007-04-23 08:03:49 51°20.634 2°59.845 12.3943 3.574323 29.165115 -2.871232
2007-04-23 08:03:54 51°20.64 2°59.872 12.4086 3.571941 29.142148 -2.871232
2007-04-23 08:03:59 51°20.646 2°59.899 12.4214 3.572769 29.146162 -2.871232
2007-04-23 08:04:05 51°20.654 2°59.931 12.4281 3.572769 29.146162 -2.871232
2007-04-23 08:04:10 51°20.66 2°59.958 12.4342 3.571319 29.128154 -2.871232
2007-04-23 08:04:14 51°20.665 2°59.98 12.4327 3.575151 29.156564 -2.871232
2007-04-23 08:04:19 51°20.671 3°0.007 12.4314 3.576394 29.160837 -2.871232
2007-04-23 08:04:24 51°20.678 3°0.034 12.4308 3.575358 29.141009 -2.871232
2007-04-23 08:04:29 51°20.683 3°0.061 12.4293 3.579501 29.168025 -2.871232
2007-04-23 08:04:34 51°20.69 3°0.088 12.4253 3.579501 29.168025 -2.871232
2007-04-23 08:04:39 51°20.696 3°0.115 12.4254 3.581469 29.178152 -2.871232
2007-04-23 08:04:44 51°20.702 3°0.142 12.4322 3.580433 29.161122 -2.871232
2007-04-23 08:04:49 51°20.708 3°0.169 12.4288 3.583023 29.180347 -2.871232
2007-04-23 08:04:55 51°20.716 3°0.202 12.4243 3.583023 29.178953 -2.871232
2007-04-23 08:04:59 51°20.721 3°0.223 12.4273 3.584576 29.192299 -2.871232
2007-04-23 08:05:04 51°20.727 3°0.251 12.4252 3.584576 29.192299 -2.871232
2007-04-23 08:05:09 51°20.733 3°0.278 12.4236 3.587787 29.221324 -2.871232
2007-04-23 08:05:14 51°20.739 3°0.305 12.4237 3.586855 29.212897 -2.871232
2007-04-23 08:05:19 51°20.745 3°0.332 12.4223 3.587995 29.222498 -2.871232
2007-04-23 08:05:24 51°20.751 3°0.359 12.4223 3.587373 29.217578 -2.871232
2007-04-23 08:05:29 51°20.757 3°0.386 12.4181 3.588305 29.226703 -2.871232
2007-04-23 08:05:34 51°20.763 3°0.413 12.4242 3.588305 29.226703 -2.871232
2007-04-23 08:05:39 51°20.77 3°0.44 12.4269 3.58903 29.233258 -2.871232
2007-04-23 08:05:44 51°20.776 3°0.467 12.4268 3.589134 29.234893 -2.871232
2007-04-23 08:05:49 51°20.782 3°0.494 12.4301 3.589859 29.242147 -2.871232
2007-04-23 08:05:54 51°20.788 3°0.521 12.4328 3.590377 29.248226 -2.871232
2007-04-23 08:05:59 51°20.794 3°0.549 12.4395 3.589134 29.237686 -2.871232
2007-04-23 08:06:05 51°20.802 3°0.581 12.4512 3.589134 29.237686 -2.871232
2007-04-23 08:06:09 51°20.808 3°0.602 12.4659 3.590377 29.248925 -2.871232
2007-04-23 08:06:14 51°20.814 3°0.63 12.475 3.591517 29.25783 -2.871232
2007-04-23 08:06:19 51°20.82 3°0.657 12.481 3.594624 29.284531 -2.871232
2007-04-23 08:06:24 51°20.826 3°0.684 12.4844 3.593692 29.274003 -2.871232
2007-04-23 08:06:29 51°20.833 3°0.711 12.4843 3.592759 29.262779 -2.871232
2007-04-23 08:06:34 51°20.839 3°0.738 12.4812 3.592759 29.262779 -2.871232
2007-04-23 08:06:39 51°20.845 3°0.765 12.4775 3.594313 29.269836 -2.871232
2007-04-23 08:06:44 51°20.852 3°0.792 12.4701 3.594002 29.258644 -2.871232
2007-04-23 08:06:50 51°20.859 3°0.824 12.4682 3.595867 29.266412 -2.871232
2007-04-23 08:06:54 51°20.864 3°0.846 12.4651 3.597213 29.271594 -2.871232
2007-04-23 08:06:59 51°20.871 3°0.873 12.4662 3.59742 29.269974 -2.871232
2007-04-23 08:07:04 51°20.877 3°0.9 12.4669 3.59742 29.269974 -2.871232
2007-04-23 08:07:09 51°20.883 3°0.927 12.4666 3.598352 29.276299 -2.871232
2007-04-23 08:07:14 51°20.889 3°0.954 12.4658 3.598249 29.276062 -2.871232
2007-04-23 08:07:19 51°20.895 3°0.981 12.4684 3.59856 29.281661 -2.871232
2007-04-23 08:07:24 51°20.901 3°1.008 12.4695 3.598767 29.287025 -2.871232
2007-04-23 08:07:29 51°20.907 3°1.035 12.4746 3.597524 29.277194 -2.871232
2007-04-23 08:07:34 51°20.913 3°1.062 12.48 3.597524 29.277194 -2.871232
2007-04-23 08:07:39 51°20.919 3°1.089 12.4834 3.597835 29.2807 -2.871232
2007-04-23 08:07:45 51°20.926 3°1.122 12.4882 3.597006 29.273214 -2.871232
2007-04-23 08:07:49 51°20.931 3°1.144 12.4913 3.598353 29.285378 -2.871232
2007-04-23 08:07:54 51°20.936 3°1.171 12.4928 3.596177 29.264332 -2.871232
2007-04-23 08:07:59 51°20.943 3°1.198 12.4837 3.596695 29.267614 -2.871232
2007-04-23 08:08:04 51°20.949 3°1.225 12.4803 3.596695 29.267614 -2.871232
2007-04-23 08:08:09 51°20.955 3°1.251 12.4762 3.597938 29.27535 -2.871232
2007-04-23 08:08:14 51°20.961 3°1.278 12.4717 3.594416 29.240754 -2.871232
2007-04-23 08:08:19 51°20.967 3°1.305 12.4741 3.59742 29.26439 -2.871232